<?xml version="1.0" encoding="UTF-8" standalone="no" ?>
<gpx xmlns="http://www.topografix.com/GPX/1/1" xmlns:xsi="http://www.w3.org/2001/XMLSchema-instance" xsi:schemaLocation="http://www.topografix.com/GPX/1/1 http://www.topografix.com/GPX/1/1/gpx.xsd" version="1.1" creator="VisuGPX - https://www.visugpx.com">
  <metadata>
    <name>Journée au Lac Tolerme</name>
    <desc><![CDATA[petite promenade autour du Lac du Tolerme]]></desc>
  </metadata>
  <wpt lat="44.82416" lon="2.04336">
    <ele>622.6</ele>
    <name><![CDATA[Unnamed Rd (départ)]]></name>
  </wpt>
  <wpt lat="44.82412" lon="2.04353">
    <ele>587.2</ele>
    <name><![CDATA[Unnamed Rd (fin)]]></name>
    <desc><![CDATA[Créé par Mes parcours sur Android  Nom : Unnamed Rd Type d'activité : marche Description : - Distance totale : 5,05 km (3,1 mi) Durée totale : 1:43:41 Durée du déplacement : 1:26:28 Vitesse moyenne : 2,92 km/h (1,8 mi/h) Vitesse moyenne de déplacement : 3,51 km/h (2,2 mi/h) Vitesse max. : 6,71 km/h (4,2 mi/h) Vitesse moyenne : 20:31 min/km (33:02 min/mi) Allure moyenne : 17:07 min/km (27:32 min/mi) Vitesse maximale : 8:57 min/km (14:24 min/mi) Élévation max. : 625 m (2051 pi) Élévation min. : 579 m (1900 pi) Dénivelé : 49 m (162 pi) Inclinaison max. : 6 % Inclinaison min. : -7 % Date d'enregistrement : 24/09/2015 10:19]]></desc>
  </wpt>
  <trk>
    <name><![CDATA[Unnamed Rd]]></name>
    <trkseg>
      <trkpt lat="44.82416" lon="2.04336">
        <ele>622.60559082</ele>
        <time>2015-09-24T08:19:07.223Z</time>
      </trkpt>
      <trkpt lat="44.82413" lon="2.0433">
        <ele>625.241516113</ele>
        <time>2015-09-24T08:19:29.476Z</time>
      </trkpt>
      <trkpt lat="44.82404" lon="2.04334">
        <ele>628.003967285</ele>
        <time>2015-09-24T08:19:30.456Z</time>
      </trkpt>
      <trkpt lat="44.82399" lon="2.04341">
        <ele>569.209777832</ele>
        <time>2015-09-24T08:20:52.503Z</time>
      </trkpt>
      <trkpt lat="44.82404" lon="2.04349">
        <ele>569.408691406</ele>
        <time>2015-09-24T08:20:53.459Z</time>
      </trkpt>
      <trkpt lat="44.82408" lon="2.04353">
        <ele>572.887207031</ele>
        <time>2015-09-24T08:21:16.493Z</time>
      </trkpt>
      <trkpt lat="44.82418" lon="2.04358">
        <ele>573.154663086</ele>
        <time>2015-09-24T08:21:17.455Z</time>
      </trkpt>
      <trkpt lat="44.82424" lon="2.04363">
        <ele>574.763549805</ele>
        <time>2015-09-24T08:21:37.647Z</time>
      </trkpt>
      <trkpt lat="44.82426" lon="2.04365">
        <ele>575.198730469</ele>
        <time>2015-09-24T08:21:38.559Z</time>
      </trkpt>
      <trkpt lat="44.82426" lon="2.04365">
        <ele>576.278747559</ele>
        <time>2015-09-24T08:21:42.665Z</time>
      </trkpt>
      <trkpt lat="44.82439" lon="2.04367">
        <ele>576.574768066</ele>
        <time>2015-09-24T08:21:43.568Z</time>
      </trkpt>
      <trkpt lat="44.82448" lon="2.04368">
        <ele>578.259643555</ele>
        <time>2015-09-24T08:21:51.687Z</time>
      </trkpt>
      <trkpt lat="44.82449" lon="2.04368">
        <ele>578.490234375</ele>
        <time>2015-09-24T08:21:52.479Z</time>
      </trkpt>
      <trkpt lat="44.82458" lon="2.0437">
        <ele>580.040527344</ele>
        <time>2015-09-24T08:22:00.618Z</time>
      </trkpt>
      <trkpt lat="44.82458" lon="2.04372">
        <ele>580.229370117</ele>
        <time>2015-09-24T08:22:01.559Z</time>
      </trkpt>
      <trkpt lat="44.82466" lon="2.04375">
        <ele>581.589416504</ele>
        <time>2015-09-24T08:22:10.693Z</time>
      </trkpt>
      <trkpt lat="44.82467" lon="2.04374">
        <ele>581.736206055</ele>
        <time>2015-09-24T08:22:11.562Z</time>
      </trkpt>
      <trkpt lat="44.82475" lon="2.04375">
        <ele>582.143249512</ele>
        <time>2015-09-24T08:22:19.66Z</time>
      </trkpt>
      <trkpt lat="44.82477" lon="2.04376">
        <ele>582.189697266</ele>
        <time>2015-09-24T08:22:20.67Z</time>
      </trkpt>
      <trkpt lat="44.82486" lon="2.04377">
        <ele>582.544372559</ele>
        <time>2015-09-24T08:22:30.747Z</time>
      </trkpt>
      <trkpt lat="44.82487" lon="2.04377">
        <ele>582.593505859</ele>
        <time>2015-09-24T08:22:31.559Z</time>
      </trkpt>
      <trkpt lat="44.82494" lon="2.04384">
        <ele>582.745727539</ele>
        <time>2015-09-24T08:22:39.623Z</time>
      </trkpt>
      <trkpt lat="44.82495" lon="2.04384">
        <ele>582.773925781</ele>
        <time>2015-09-24T08:22:40.547Z</time>
      </trkpt>
      <trkpt lat="44.82503" lon="2.04384">
        <ele>582.875366211</ele>
        <time>2015-09-24T08:22:53.662Z</time>
      </trkpt>
      <trkpt lat="44.82504" lon="2.04384">
        <ele>582.949890137</ele>
        <time>2015-09-24T08:22:54.614Z</time>
      </trkpt>
      <trkpt lat="44.82512" lon="2.04388">
        <ele>583.469543457</ele>
        <time>2015-09-24T08:23:03.596Z</time>
      </trkpt>
      <trkpt lat="44.82513" lon="2.04388">
        <ele>583.481567383</ele>
        <time>2015-09-24T08:23:04.52Z</time>
      </trkpt>
      <trkpt lat="44.82521" lon="2.04384">
        <ele>583.897888184</ele>
        <time>2015-09-24T08:23:15.593Z</time>
      </trkpt>
      <trkpt lat="44.82522" lon="2.04384">
        <ele>583.885498047</ele>
        <time>2015-09-24T08:23:16.533Z</time>
      </trkpt>
      <trkpt lat="44.82529" lon="2.04379">
        <ele>582.906677246</ele>
        <time>2015-09-24T08:23:33.65Z</time>
      </trkpt>
      <trkpt lat="44.82531" lon="2.04377">
        <ele>582.889221191</ele>
        <time>2015-09-24T08:23:34.552Z</time>
      </trkpt>
      <trkpt lat="44.82539" lon="2.04372">
        <ele>584.073913574</ele>
        <time>2015-09-24T08:23:57.6Z</time>
      </trkpt>
      <trkpt lat="44.8254" lon="2.04372">
        <ele>584.126953125</ele>
        <time>2015-09-24T08:23:58.529Z</time>
      </trkpt>
      <trkpt lat="44.82548" lon="2.04369">
        <ele>584.95123291</ele>
        <time>2015-09-24T08:24:07.652Z</time>
      </trkpt>
      <trkpt lat="44.82549" lon="2.04369">
        <ele>585.041259766</ele>
        <time>2015-09-24T08:24:08.525Z</time>
      </trkpt>
      <trkpt lat="44.82557" lon="2.04367">
        <ele>585.647155762</ele>
        <time>2015-09-24T08:24:19.66Z</time>
      </trkpt>
      <trkpt lat="44.82558" lon="2.04367">
        <ele>585.722900391</ele>
        <time>2015-09-24T08:24:20.542Z</time>
      </trkpt>
      <trkpt lat="44.82564" lon="2.04359">
        <ele>586.034179688</ele>
        <time>2015-09-24T08:24:50.553Z</time>
      </trkpt>
      <trkpt lat="44.82565" lon="2.04359">
        <ele>586.235290527</ele>
        <time>2015-09-24T08:24:51.508Z</time>
      </trkpt>
      <trkpt lat="44.82572" lon="2.04353">
        <ele>586.481689453</ele>
        <time>2015-09-24T08:25:04.66Z</time>
      </trkpt>
      <trkpt lat="44.82573" lon="2.04352">
        <ele>586.403686523</ele>
        <time>2015-09-24T08:25:05.607Z</time>
      </trkpt>
      <trkpt lat="44.82579" lon="2.04345">
        <ele>586.264831543</ele>
        <time>2015-09-24T08:25:10.734Z</time>
      </trkpt>
      <trkpt lat="44.8258" lon="2.04344">
        <ele>586.269714355</ele>
        <time>2015-09-24T08:25:11.557Z</time>
      </trkpt>
      <trkpt lat="44.82587" lon="2.04337">
        <ele>586.170959473</ele>
        <time>2015-09-24T08:25:19.806Z</time>
      </trkpt>
      <trkpt lat="44.8259" lon="2.04335">
        <ele>585.975769043</ele>
        <time>2015-09-24T08:25:20.533Z</time>
      </trkpt>
      <trkpt lat="44.82599" lon="2.04334">
        <ele>585.334472656</ele>
        <time>2015-09-24T08:25:24.601Z</time>
      </trkpt>
      <trkpt lat="44.82601" lon="2.04333">
        <ele>585.076538086</ele>
        <time>2015-09-24T08:25:25.532Z</time>
      </trkpt>
      <trkpt lat="44.82608" lon="2.04326">
        <ele>583.844848633</ele>
        <time>2015-09-24T08:25:33.655Z</time>
      </trkpt>
      <trkpt lat="44.82611" lon="2.04321">
        <ele>583.905395508</ele>
        <time>2015-09-24T08:25:35.095Z</time>
      </trkpt>
      <trkpt lat="44.82618" lon="2.04314">
        <ele>584.511291504</ele>
        <time>2015-09-24T08:25:41.66Z</time>
      </trkpt>
      <trkpt lat="44.82619" lon="2.04312">
        <ele>584.612792969</ele>
        <time>2015-09-24T08:25:42.563Z</time>
      </trkpt>
      <trkpt lat="44.82625" lon="2.04303">
        <ele>585.375671387</ele>
        <time>2015-09-24T08:25:51.655Z</time>
      </trkpt>
      <trkpt lat="44.82626" lon="2.04303">
        <ele>585.465637207</ele>
        <time>2015-09-24T08:25:52.559Z</time>
      </trkpt>
      <trkpt lat="44.82634" lon="2.043">
        <ele>586.071411133</ele>
        <time>2015-09-24T08:26:01.733Z</time>
      </trkpt>
      <trkpt lat="44.82635" lon="2.043">
        <ele>586.054138184</ele>
        <time>2015-09-24T08:26:02.549Z</time>
      </trkpt>
      <trkpt lat="44.82641" lon="2.04293">
        <ele>585.739929199</ele>
        <time>2015-09-24T08:26:07.636Z</time>
      </trkpt>
      <trkpt lat="44.82642" lon="2.04291">
        <ele>585.67388916</ele>
        <time>2015-09-24T08:26:08.598Z</time>
      </trkpt>
      <trkpt lat="44.82646" lon="2.0428">
        <ele>584.971191406</ele>
        <time>2015-09-24T08:26:18.013Z</time>
      </trkpt>
      <trkpt lat="44.82646" lon="2.04279">
        <ele>584.866882324</ele>
        <time>2015-09-24T08:26:18.584Z</time>
      </trkpt>
      <trkpt lat="44.82643" lon="2.04267">
        <ele>584.338134766</ele>
        <time>2015-09-24T08:26:25.655Z</time>
      </trkpt>
      <trkpt lat="44.82642" lon="2.04265">
        <ele>584.295471191</ele>
        <time>2015-09-24T08:26:26.59Z</time>
      </trkpt>
      <trkpt lat="44.82638" lon="2.04257">
        <ele>584.184326172</ele>
        <time>2015-09-24T08:26:31.702Z</time>
      </trkpt>
      <trkpt lat="44.82636" lon="2.04255">
        <ele>584.183166504</ele>
        <time>2015-09-24T08:26:32.561Z</time>
      </trkpt>
      <trkpt lat="44.82629" lon="2.04247">
        <ele>583.975158691</ele>
        <time>2015-09-24T08:26:39.513Z</time>
      </trkpt>
      <trkpt lat="44.82629" lon="2.04246">
        <ele>584.000976562</ele>
        <time>2015-09-24T08:26:40.557Z</time>
      </trkpt>
      <trkpt lat="44.82622" lon="2.04242">
        <ele>583.772949219</ele>
        <time>2015-09-24T08:26:46.684Z</time>
      </trkpt>
      <trkpt lat="44.8262" lon="2.04241">
        <ele>583.669189453</ele>
        <time>2015-09-24T08:26:47.552Z</time>
      </trkpt>
      <trkpt lat="44.82611" lon="2.04239">
        <ele>583.322631836</ele>
        <time>2015-09-24T08:26:54.707Z</time>
      </trkpt>
      <trkpt lat="44.82609" lon="2.04239">
        <ele>583.298095703</ele>
        <time>2015-09-24T08:26:55.539Z</time>
      </trkpt>
      <trkpt lat="44.82601" lon="2.04235">
        <ele>583.024291992</ele>
        <time>2015-09-24T08:27:04.628Z</time>
      </trkpt>
      <trkpt lat="44.82601" lon="2.04235">
        <ele>583.08996582</ele>
        <time>2015-09-24T08:27:05.558Z</time>
      </trkpt>
      <trkpt lat="44.82594" lon="2.0423">
        <ele>583.133911133</ele>
        <time>2015-09-24T08:27:11.519Z</time>
      </trkpt>
      <trkpt lat="44.82592" lon="2.04229">
        <ele>583.021850586</ele>
        <time>2015-09-24T08:27:12.525Z</time>
      </trkpt>
      <trkpt lat="44.82583" lon="2.04231">
        <ele>587.027404785</ele>
        <time>2015-09-24T08:27:37.48Z</time>
      </trkpt>
      <trkpt lat="44.82583" lon="2.04231">
        <ele>587.301818848</ele>
        <time>2015-09-24T08:27:38.613Z</time>
      </trkpt>
      <trkpt lat="44.82575" lon="2.04229">
        <ele>588.910827637</ele>
        <time>2015-09-24T08:27:49.635Z</time>
      </trkpt>
      <trkpt lat="44.82573" lon="2.04229">
        <ele>588.937561035</ele>
        <time>2015-09-24T08:27:50.539Z</time>
      </trkpt>
      <trkpt lat="44.82565" lon="2.04224">
        <ele>589.087768555</ele>
        <time>2015-09-24T08:28:10.72Z</time>
      </trkpt>
      <trkpt lat="44.82564" lon="2.04224">
        <ele>589.234741211</ele>
        <time>2015-09-24T08:28:11.565Z</time>
      </trkpt>
      <trkpt lat="44.82557" lon="2.04227">
        <ele>588.74029541</ele>
        <time>2015-09-24T08:28:22.667Z</time>
      </trkpt>
      <trkpt lat="44.82556" lon="2.04229">
        <ele>588.512817383</ele>
        <time>2015-09-24T08:28:23.561Z</time>
      </trkpt>
      <trkpt lat="44.82552" lon="2.0424">
        <ele>583.271850586</ele>
        <time>2015-09-24T08:28:49.638Z</time>
      </trkpt>
      <trkpt lat="44.82551" lon="2.04241">
        <ele>582.77166748</ele>
        <time>2015-09-24T08:28:50.55Z</time>
      </trkpt>
      <trkpt lat="44.82543" lon="2.04236">
        <ele>583.374816895</ele>
        <time>2015-09-24T08:29:40.658Z</time>
      </trkpt>
      <trkpt lat="44.82542" lon="2.04236">
        <ele>583.415588379</ele>
        <time>2015-09-24T08:29:41.585Z</time>
      </trkpt>
      <trkpt lat="44.82534" lon="2.04236">
        <ele>585.290405273</ele>
        <time>2015-09-24T08:29:56.654Z</time>
      </trkpt>
      <trkpt lat="44.82533" lon="2.04235">
        <ele>585.369750977</ele>
        <time>2015-09-24T08:29:57.552Z</time>
      </trkpt>
      <trkpt lat="44.82525" lon="2.04235">
        <ele>586.514038086</ele>
        <time>2015-09-24T08:30:10.658Z</time>
      </trkpt>
      <trkpt lat="44.82523" lon="2.04236">
        <ele>586.671630859</ele>
        <time>2015-09-24T08:30:11.518Z</time>
      </trkpt>
      <trkpt lat="44.8252" lon="2.04241">
        <ele>589.190734863</ele>
        <time>2015-09-24T08:30:31.671Z</time>
      </trkpt>
      <trkpt lat="44.82507" lon="2.04247">
        <ele>589.330932617</ele>
        <time>2015-09-24T08:30:32.56Z</time>
      </trkpt>
      <trkpt lat="44.825" lon="2.04245">
        <ele>589.443481445</ele>
        <time>2015-09-24T08:30:33.575Z</time>
      </trkpt>
      <trkpt lat="44.82498" lon="2.04244">
        <ele>589.544616699</ele>
        <time>2015-09-24T08:30:34.573Z</time>
      </trkpt>
      <trkpt lat="44.8249" lon="2.04241">
        <ele>589.348388672</ele>
        <time>2015-09-24T08:30:39.661Z</time>
      </trkpt>
      <trkpt lat="44.82489" lon="2.0424">
        <ele>589.17199707</ele>
        <time>2015-09-24T08:30:40.548Z</time>
      </trkpt>
      <trkpt lat="44.82481" lon="2.04239">
        <ele>588.176879883</ele>
        <time>2015-09-24T08:31:11.656Z</time>
      </trkpt>
      <trkpt lat="44.8248" lon="2.04238">
        <ele>588.224914551</ele>
        <time>2015-09-24T08:31:12.563Z</time>
      </trkpt>
      <trkpt lat="44.82474" lon="2.04239">
        <ele>588.887573242</ele>
        <time>2015-09-24T08:31:19.833Z</time>
      </trkpt>
      <trkpt lat="44.82467" lon="2.0424">
        <ele>588.948730469</ele>
        <time>2015-09-24T08:31:20.559Z</time>
      </trkpt>
      <trkpt lat="44.8246" lon="2.04244">
        <ele>587.736633301</ele>
        <time>2015-09-24T08:31:35.714Z</time>
      </trkpt>
      <trkpt lat="44.82458" lon="2.04242">
        <ele>587.618347168</ele>
        <time>2015-09-24T08:31:36.577Z</time>
      </trkpt>
      <trkpt lat="44.8245" lon="2.04247">
        <ele>586.370544434</ele>
        <time>2015-09-24T08:31:44.633Z</time>
      </trkpt>
      <trkpt lat="44.82449" lon="2.04248">
        <ele>586.303039551</ele>
        <time>2015-09-24T08:31:45.536Z</time>
      </trkpt>
      <trkpt lat="44.82443" lon="2.04256">
        <ele>585.080383301</ele>
        <time>2015-09-24T08:31:57.598Z</time>
      </trkpt>
      <trkpt lat="44.82442" lon="2.04256">
        <ele>585.041137695</ele>
        <time>2015-09-24T08:31:58.56Z</time>
      </trkpt>
      <trkpt lat="44.82434" lon="2.04258">
        <ele>584.645202637</ele>
        <time>2015-09-24T08:32:07.603Z</time>
      </trkpt>
      <trkpt lat="44.82433" lon="2.04258">
        <ele>584.689880371</ele>
        <time>2015-09-24T08:32:08.564Z</time>
      </trkpt>
      <trkpt lat="44.82428" lon="2.04267">
        <ele>585.131225586</ele>
        <time>2015-09-24T08:32:18.602Z</time>
      </trkpt>
      <trkpt lat="44.82428" lon="2.04268">
        <ele>585.215332031</ele>
        <time>2015-09-24T08:32:19.539Z</time>
      </trkpt>
      <trkpt lat="44.82425" lon="2.0428">
        <ele>584.619506836</ele>
        <time>2015-09-24T08:32:38.599Z</time>
      </trkpt>
      <trkpt lat="44.82424" lon="2.0428">
        <ele>584.571899414</ele>
        <time>2015-09-24T08:32:39.563Z</time>
      </trkpt>
      <trkpt lat="44.82422" lon="2.04292">
        <ele>583.701965332</ele>
        <time>2015-09-24T08:32:58.645Z</time>
      </trkpt>
      <trkpt lat="44.82422" lon="2.04292">
        <ele>583.690917969</ele>
        <time>2015-09-24T08:32:59.471Z</time>
      </trkpt>
      <trkpt lat="44.82414" lon="2.04288">
        <ele>583.105651855</ele>
        <time>2015-09-24T08:33:44.653Z</time>
      </trkpt>
      <trkpt lat="44.82413" lon="2.04287">
        <ele>583.321533203</ele>
        <time>2015-09-24T08:33:45.556Z</time>
      </trkpt>
      <trkpt lat="44.82405" lon="2.04287">
        <ele>584.711364746</ele>
        <time>2015-09-24T08:33:59.671Z</time>
      </trkpt>
      <trkpt lat="44.82403" lon="2.04288">
        <ele>584.731201172</ele>
        <time>2015-09-24T08:34:00.569Z</time>
      </trkpt>
      <trkpt lat="44.82394" lon="2.0429">
        <ele>584.854187012</ele>
        <time>2015-09-24T08:34:05.665Z</time>
      </trkpt>
      <trkpt lat="44.82393" lon="2.0429">
        <ele>584.854492188</ele>
        <time>2015-09-24T08:34:06.556Z</time>
      </trkpt>
      <trkpt lat="44.82386" lon="2.04295">
        <ele>584.604309082</ele>
        <time>2015-09-24T08:34:13.847Z</time>
      </trkpt>
      <trkpt lat="44.82384" lon="2.04296">
        <ele>584.448730469</ele>
        <time>2015-09-24T08:34:14.557Z</time>
      </trkpt>
      <trkpt lat="44.82375" lon="2.04299">
        <ele>583.641296387</ele>
        <time>2015-09-24T08:34:21.664Z</time>
      </trkpt>
      <trkpt lat="44.82374" lon="2.043">
        <ele>583.578613281</ele>
        <time>2015-09-24T08:34:22.59Z</time>
      </trkpt>
      <trkpt lat="44.82365" lon="2.04305">
        <ele>583.317260742</ele>
        <time>2015-09-24T08:34:33.608Z</time>
      </trkpt>
      <trkpt lat="44.82365" lon="2.04304">
        <ele>583.142578125</ele>
        <time>2015-09-24T08:34:34.558Z</time>
      </trkpt>
      <trkpt lat="44.82358" lon="2.04305">
        <ele>582.198913574</ele>
        <time>2015-09-24T08:34:46.532Z</time>
      </trkpt>
      <trkpt lat="44.82355" lon="2.04305">
        <ele>582.226135254</ele>
        <time>2015-09-24T08:34:47.554Z</time>
      </trkpt>
      <trkpt lat="44.82347" lon="2.04306">
        <ele>582.498779297</ele>
        <time>2015-09-24T08:34:53.653Z</time>
      </trkpt>
      <trkpt lat="44.82346" lon="2.04307">
        <ele>582.518066406</ele>
        <time>2015-09-24T08:34:54.563Z</time>
      </trkpt>
      <trkpt lat="44.82338" lon="2.0431">
        <ele>582.725769043</ele>
        <time>2015-09-24T08:35:03.657Z</time>
      </trkpt>
      <trkpt lat="44.82337" lon="2.04311">
        <ele>582.731872559</ele>
        <time>2015-09-24T08:35:04.592Z</time>
      </trkpt>
      <trkpt lat="44.82329" lon="2.04319">
        <ele>583.262023926</ele>
        <time>2015-09-24T08:35:15.668Z</time>
      </trkpt>
      <trkpt lat="44.82328" lon="2.04319">
        <ele>583.288330078</ele>
        <time>2015-09-24T08:35:16.556Z</time>
      </trkpt>
      <trkpt lat="44.82321" lon="2.04324">
        <ele>585.00213623</ele>
        <time>2015-09-24T08:35:34.731Z</time>
      </trkpt>
      <trkpt lat="44.82319" lon="2.04324">
        <ele>585.10546875</ele>
        <time>2015-09-24T08:35:35.558Z</time>
      </trkpt>
      <trkpt lat="44.82311" lon="2.04329">
        <ele>585.924316406</ele>
        <time>2015-09-24T08:35:41.658Z</time>
      </trkpt>
      <trkpt lat="44.8231" lon="2.0433">
        <ele>585.940979004</ele>
        <time>2015-09-24T08:35:42.552Z</time>
      </trkpt>
      <trkpt lat="44.82301" lon="2.04334">
        <ele>585.769226074</ele>
        <time>2015-09-24T08:35:51.666Z</time>
      </trkpt>
      <trkpt lat="44.823" lon="2.04334">
        <ele>585.823974609</ele>
        <time>2015-09-24T08:35:52.551Z</time>
      </trkpt>
      <trkpt lat="44.82293" lon="2.0434">
        <ele>585.637878418</ele>
        <time>2015-09-24T08:35:57.664Z</time>
      </trkpt>
      <trkpt lat="44.82292" lon="2.0434">
        <ele>585.62121582</ele>
        <time>2015-09-24T08:35:58.565Z</time>
      </trkpt>
      <trkpt lat="44.82284" lon="2.04339">
        <ele>584.549255371</ele>
        <time>2015-09-24T08:36:08.695Z</time>
      </trkpt>
      <trkpt lat="44.82282" lon="2.04339">
        <ele>584.452697754</ele>
        <time>2015-09-24T08:36:09.566Z</time>
      </trkpt>
      <trkpt lat="44.82278" lon="2.04329">
        <ele>584.201599121</ele>
        <time>2015-09-24T08:37:15.647Z</time>
      </trkpt>
      <trkpt lat="44.82277" lon="2.04328">
        <ele>584.104797363</ele>
        <time>2015-09-24T08:37:16.579Z</time>
      </trkpt>
      <trkpt lat="44.82272" lon="2.04318">
        <ele>583.01550293</ele>
        <time>2015-09-24T08:37:24.653Z</time>
      </trkpt>
      <trkpt lat="44.8227" lon="2.04317">
        <ele>582.889465332</ele>
        <time>2015-09-24T08:37:25.545Z</time>
      </trkpt>
      <trkpt lat="44.82266" lon="2.04308">
        <ele>583.844665527</ele>
        <time>2015-09-24T08:37:51.701Z</time>
      </trkpt>
      <trkpt lat="44.82265" lon="2.04307">
        <ele>583.900085449</ele>
        <time>2015-09-24T08:37:52.555Z</time>
      </trkpt>
      <trkpt lat="44.82259" lon="2.04299">
        <ele>584.051574707</ele>
        <time>2015-09-24T08:37:59.658Z</time>
      </trkpt>
      <trkpt lat="44.82257" lon="2.04299">
        <ele>584.054138184</ele>
        <time>2015-09-24T08:38:00.557Z</time>
      </trkpt>
      <trkpt lat="44.8225" lon="2.04291">
        <ele>584.076843262</ele>
        <time>2015-09-24T08:38:11.677Z</time>
      </trkpt>
      <trkpt lat="44.82249" lon="2.0429">
        <ele>584.051452637</ele>
        <time>2015-09-24T08:38:12.661Z</time>
      </trkpt>
      <trkpt lat="44.82251" lon="2.04279">
        <ele>584.09967041</ele>
        <time>2015-09-24T08:38:19.662Z</time>
      </trkpt>
      <trkpt lat="44.82252" lon="2.04278">
        <ele>584.157592773</ele>
        <time>2015-09-24T08:38:20.549Z</time>
      </trkpt>
      <trkpt lat="44.82258" lon="2.0427">
        <ele>584.522583008</ele>
        <time>2015-09-24T08:38:28.662Z</time>
      </trkpt>
      <trkpt lat="44.82259" lon="2.04269">
        <ele>584.541564941</ele>
        <time>2015-09-24T08:38:29.984Z</time>
      </trkpt>
      <trkpt lat="44.82265" lon="2.04261">
        <ele>584.768554688</ele>
        <time>2015-09-24T08:38:36.673Z</time>
      </trkpt>
      <trkpt lat="44.82266" lon="2.0426">
        <ele>584.853149414</ele>
        <time>2015-09-24T08:38:37.563Z</time>
      </trkpt>
      <trkpt lat="44.82269" lon="2.04249">
        <ele>586.313659668</ele>
        <time>2015-09-24T08:39:41.658Z</time>
      </trkpt>
      <trkpt lat="44.82268" lon="2.04247">
        <ele>586.431945801</ele>
        <time>2015-09-24T08:39:42.555Z</time>
      </trkpt>
      <trkpt lat="44.82271" lon="2.04235">
        <ele>587.544189453</ele>
        <time>2015-09-24T08:39:50.652Z</time>
      </trkpt>
      <trkpt lat="44.82272" lon="2.04235">
        <ele>587.657836914</ele>
        <time>2015-09-24T08:39:51.558Z</time>
      </trkpt>
      <trkpt lat="44.8228" lon="2.04231">
        <ele>588.408691406</ele>
        <time>2015-09-24T08:39:57.664Z</time>
      </trkpt>
      <trkpt lat="44.82281" lon="2.0423">
        <ele>588.453918457</ele>
        <time>2015-09-24T08:39:58.558Z</time>
      </trkpt>
      <trkpt lat="44.82289" lon="2.04226">
        <ele>588.955566406</ele>
        <time>2015-09-24T08:40:03.72Z</time>
      </trkpt>
      <trkpt lat="44.8229" lon="2.04225">
        <ele>589.07220459</ele>
        <time>2015-09-24T08:40:04.581Z</time>
      </trkpt>
      <trkpt lat="44.82298" lon="2.04221">
        <ele>589.908691406</ele>
        <time>2015-09-24T08:40:12.741Z</time>
      </trkpt>
      <trkpt lat="44.82299" lon="2.0422">
        <ele>590.047729492</ele>
        <time>2015-09-24T08:40:13.537Z</time>
      </trkpt>
      <trkpt lat="44.82306" lon="2.04213">
        <ele>590.826599121</ele>
        <time>2015-09-24T08:40:23.673Z</time>
      </trkpt>
      <trkpt lat="44.82307" lon="2.04211">
        <ele>590.847961426</ele>
        <time>2015-09-24T08:40:24.668Z</time>
      </trkpt>
      <trkpt lat="44.82315" lon="2.04208">
        <ele>590.954711914</ele>
        <time>2015-09-24T08:40:41.661Z</time>
      </trkpt>
      <trkpt lat="44.82316" lon="2.04207">
        <ele>591.006713867</ele>
        <time>2015-09-24T08:40:42.562Z</time>
      </trkpt>
      <trkpt lat="44.82323" lon="2.04207">
        <ele>590.655151367</ele>
        <time>2015-09-24T08:40:51.664Z</time>
      </trkpt>
      <trkpt lat="44.82325" lon="2.04207">
        <ele>590.583496094</ele>
        <time>2015-09-24T08:40:52.561Z</time>
      </trkpt>
      <trkpt lat="44.82332" lon="2.04207">
        <ele>590.574157715</ele>
        <time>2015-09-24T08:40:57.652Z</time>
      </trkpt>
      <trkpt lat="44.82334" lon="2.04205">
        <ele>590.581420898</ele>
        <time>2015-09-24T08:40:58.57Z</time>
      </trkpt>
      <trkpt lat="44.82343" lon="2.04201">
        <ele>590.608215332</ele>
        <time>2015-09-24T08:41:13.67Z</time>
      </trkpt>
      <trkpt lat="44.82343" lon="2.042">
        <ele>590.57043457</ele>
        <time>2015-09-24T08:41:14.561Z</time>
      </trkpt>
      <trkpt lat="44.82351" lon="2.04197">
        <ele>590.193664551</ele>
        <time>2015-09-24T08:41:20.668Z</time>
      </trkpt>
      <trkpt lat="44.82352" lon="2.04195">
        <ele>590.084777832</ele>
        <time>2015-09-24T08:41:21.548Z</time>
      </trkpt>
      <trkpt lat="44.82358" lon="2.04188">
        <ele>589.104675293</ele>
        <time>2015-09-24T08:41:31.681Z</time>
      </trkpt>
      <trkpt lat="44.8236" lon="2.04185">
        <ele>588.956420898</ele>
        <time>2015-09-24T08:41:32.556Z</time>
      </trkpt>
      <trkpt lat="44.82365" lon="2.04176">
        <ele>587.45892334</ele>
        <time>2015-09-24T08:41:42.657Z</time>
      </trkpt>
      <trkpt lat="44.82366" lon="2.04175">
        <ele>587.3984375</ele>
        <time>2015-09-24T08:41:43.556Z</time>
      </trkpt>
      <trkpt lat="44.82372" lon="2.04168">
        <ele>586.333740234</ele>
        <time>2015-09-24T08:41:53.662Z</time>
      </trkpt>
      <trkpt lat="44.82372" lon="2.04166">
        <ele>586.202392578</ele>
        <time>2015-09-24T08:41:54.574Z</time>
      </trkpt>
      <trkpt lat="44.82377" lon="2.04157">
        <ele>584.917663574</ele>
        <time>2015-09-24T08:42:01.828Z</time>
      </trkpt>
      <trkpt lat="44.82378" lon="2.04155">
        <ele>584.789123535</ele>
        <time>2015-09-24T08:42:02.564Z</time>
      </trkpt>
      <trkpt lat="44.82381" lon="2.04145">
        <ele>583.756530762</ele>
        <time>2015-09-24T08:42:09.91Z</time>
      </trkpt>
      <trkpt lat="44.82381" lon="2.04144">
        <ele>583.583618164</ele>
        <time>2015-09-24T08:42:10.563Z</time>
      </trkpt>
      <trkpt lat="44.82382" lon="2.04132">
        <ele>582.26385498</ele>
        <time>2015-09-24T08:42:20.665Z</time>
      </trkpt>
      <trkpt lat="44.82383" lon="2.04131">
        <ele>582.226196289</ele>
        <time>2015-09-24T08:42:21.562Z</time>
      </trkpt>
      <trkpt lat="44.82385" lon="2.0412">
        <ele>580.888000488</ele>
        <time>2015-09-24T08:42:41.606Z</time>
      </trkpt>
      <trkpt lat="44.82386" lon="2.04118">
        <ele>580.899047852</ele>
        <time>2015-09-24T08:42:42.528Z</time>
      </trkpt>
      <trkpt lat="44.82392" lon="2.0411">
        <ele>581.268859863</ele>
        <time>2015-09-24T08:42:48.873Z</time>
      </trkpt>
      <trkpt lat="44.82393" lon="2.04109">
        <ele>581.35546875</ele>
        <time>2015-09-24T08:42:49.546Z</time>
      </trkpt>
      <trkpt lat="44.82399" lon="2.04105">
        <ele>581.759887695</ele>
        <time>2015-09-24T08:42:56.634Z</time>
      </trkpt>
      <trkpt lat="44.82401" lon="2.04102">
        <ele>581.812194824</ele>
        <time>2015-09-24T08:42:57.579Z</time>
      </trkpt>
      <trkpt lat="44.82407" lon="2.04095">
        <ele>582.377319336</ele>
        <time>2015-09-24T08:43:02.669Z</time>
      </trkpt>
      <trkpt lat="44.82408" lon="2.04095">
        <ele>582.477661133</ele>
        <time>2015-09-24T08:43:03.554Z</time>
      </trkpt>
      <trkpt lat="44.82416" lon="2.0409">
        <ele>583.117797852</ele>
        <time>2015-09-24T08:43:11.828Z</time>
      </trkpt>
      <trkpt lat="44.82418" lon="2.04089">
        <ele>583.104919434</ele>
        <time>2015-09-24T08:43:12.595Z</time>
      </trkpt>
      <trkpt lat="44.82425" lon="2.04085">
        <ele>583.776855469</ele>
        <time>2015-09-24T08:43:21.662Z</time>
      </trkpt>
      <trkpt lat="44.82426" lon="2.04085">
        <ele>583.775756836</ele>
        <time>2015-09-24T08:43:22.553Z</time>
      </trkpt>
      <trkpt lat="44.82435" lon="2.04083">
        <ele>583.913635254</ele>
        <time>2015-09-24T08:43:27.765Z</time>
      </trkpt>
      <trkpt lat="44.82436" lon="2.04082">
        <ele>584.02355957</ele>
        <time>2015-09-24T08:43:28.559Z</time>
      </trkpt>
      <trkpt lat="44.82445" lon="2.04082">
        <ele>584.641296387</ele>
        <time>2015-09-24T08:43:41.659Z</time>
      </trkpt>
      <trkpt lat="44.82445" lon="2.04082">
        <ele>584.645751953</ele>
        <time>2015-09-24T08:43:42.559Z</time>
      </trkpt>
      <trkpt lat="44.82454" lon="2.04081">
        <ele>584.779418945</ele>
        <time>2015-09-24T08:43:48.765Z</time>
      </trkpt>
      <trkpt lat="44.82455" lon="2.04081">
        <ele>584.796630859</ele>
        <time>2015-09-24T08:43:49.661Z</time>
      </trkpt>
      <trkpt lat="44.82463" lon="2.04081">
        <ele>585.981567383</ele>
        <time>2015-09-24T08:44:03.637Z</time>
      </trkpt>
      <trkpt lat="44.82464" lon="2.0408">
        <ele>586.086303711</ele>
        <time>2015-09-24T08:44:04.49Z</time>
      </trkpt>
      <trkpt lat="44.82473" lon="2.04077">
        <ele>586.086364746</ele>
        <time>2015-09-24T08:44:14.586Z</time>
      </trkpt>
      <trkpt lat="44.82473" lon="2.04077">
        <ele>586.108032227</ele>
        <time>2015-09-24T08:44:15.622Z</time>
      </trkpt>
      <trkpt lat="44.82481" lon="2.04077">
        <ele>586.515991211</ele>
        <time>2015-09-24T08:44:26.661Z</time>
      </trkpt>
      <trkpt lat="44.82485" lon="2.04076">
        <ele>586.504089355</ele>
        <time>2015-09-24T08:44:27.988Z</time>
      </trkpt>
      <trkpt lat="44.82493" lon="2.04075">
        <ele>586.528198242</ele>
        <time>2015-09-24T08:44:35.684Z</time>
      </trkpt>
      <trkpt lat="44.82495" lon="2.04074">
        <ele>586.461120605</ele>
        <time>2015-09-24T08:44:36.541Z</time>
      </trkpt>
      <trkpt lat="44.82502" lon="2.0407">
        <ele>586.270324707</ele>
        <time>2015-09-24T08:44:42.71Z</time>
      </trkpt>
      <trkpt lat="44.82504" lon="2.04068">
        <ele>586.16809082</ele>
        <time>2015-09-24T08:44:43.566Z</time>
      </trkpt>
      <trkpt lat="44.82511" lon="2.04065">
        <ele>585.207763672</ele>
        <time>2015-09-24T08:44:55.728Z</time>
      </trkpt>
      <trkpt lat="44.82513" lon="2.04064">
        <ele>585.121948242</ele>
        <time>2015-09-24T08:44:56.562Z</time>
      </trkpt>
      <trkpt lat="44.82521" lon="2.04059">
        <ele>584.474914551</ele>
        <time>2015-09-24T08:45:04.655Z</time>
      </trkpt>
      <trkpt lat="44.82522" lon="2.04059">
        <ele>584.431213379</ele>
        <time>2015-09-24T08:45:05.563Z</time>
      </trkpt>
      <trkpt lat="44.82529" lon="2.04055">
        <ele>584.245605469</ele>
        <time>2015-09-24T08:45:11.662Z</time>
      </trkpt>
      <trkpt lat="44.82531" lon="2.04055">
        <ele>584.217346191</ele>
        <time>2015-09-24T08:45:12.577Z</time>
      </trkpt>
      <trkpt lat="44.82536" lon="2.04046">
        <ele>585.626464844</ele>
        <time>2015-09-24T08:45:29.665Z</time>
      </trkpt>
      <trkpt lat="44.82538" lon="2.04045">
        <ele>585.816772461</ele>
        <time>2015-09-24T08:45:30.554Z</time>
      </trkpt>
      <trkpt lat="44.82546" lon="2.04044">
        <ele>586.686523438</ele>
        <time>2015-09-24T08:45:36.577Z</time>
      </trkpt>
      <trkpt lat="44.82547" lon="2.04044">
        <ele>586.841064453</ele>
        <time>2015-09-24T08:45:37.576Z</time>
      </trkpt>
      <trkpt lat="44.82555" lon="2.04042">
        <ele>587.180053711</ele>
        <time>2015-09-24T08:45:44.659Z</time>
      </trkpt>
      <trkpt lat="44.82557" lon="2.04041">
        <ele>587.317077637</ele>
        <time>2015-09-24T08:45:45.545Z</time>
      </trkpt>
      <trkpt lat="44.82565" lon="2.04036">
        <ele>589.076477051</ele>
        <time>2015-09-24T08:46:09.624Z</time>
      </trkpt>
      <trkpt lat="44.82565" lon="2.04036">
        <ele>589.346313477</ele>
        <time>2015-09-24T08:46:10.562Z</time>
      </trkpt>
      <trkpt lat="44.8257" lon="2.04027">
        <ele>590.319396973</ele>
        <time>2015-09-24T08:46:38.65Z</time>
      </trkpt>
      <trkpt lat="44.82571" lon="2.04026">
        <ele>590.419067383</ele>
        <time>2015-09-24T08:46:39.531Z</time>
      </trkpt>
      <trkpt lat="44.82579" lon="2.04023">
        <ele>591.234130859</ele>
        <time>2015-09-24T08:46:49.664Z</time>
      </trkpt>
      <trkpt lat="44.8258" lon="2.04023">
        <ele>591.202697754</ele>
        <time>2015-09-24T08:46:50.567Z</time>
      </trkpt>
      <trkpt lat="44.82587" lon="2.04019">
        <ele>591.135070801</ele>
        <time>2015-09-24T08:46:57.652Z</time>
      </trkpt>
      <trkpt lat="44.82589" lon="2.0402">
        <ele>591.145446777</ele>
        <time>2015-09-24T08:46:58.556Z</time>
      </trkpt>
      <trkpt lat="44.82598" lon="2.04016">
        <ele>591.571044922</ele>
        <time>2015-09-24T08:47:06.651Z</time>
      </trkpt>
      <trkpt lat="44.82599" lon="2.04015">
        <ele>591.659790039</ele>
        <time>2015-09-24T08:47:07.594Z</time>
      </trkpt>
      <trkpt lat="44.82606" lon="2.04008">
        <ele>591.786743164</ele>
        <time>2015-09-24T08:47:16.654Z</time>
      </trkpt>
      <trkpt lat="44.82607" lon="2.04007">
        <ele>591.749145508</ele>
        <time>2015-09-24T08:47:17.562Z</time>
      </trkpt>
      <trkpt lat="44.82615" lon="2.04004">
        <ele>591.255310059</ele>
        <time>2015-09-24T08:47:23.726Z</time>
      </trkpt>
      <trkpt lat="44.82616" lon="2.04004">
        <ele>591.170593262</ele>
        <time>2015-09-24T08:47:24.556Z</time>
      </trkpt>
      <trkpt lat="44.82624" lon="2.04006">
        <ele>590.313171387</ele>
        <time>2015-09-24T08:47:33.657Z</time>
      </trkpt>
      <trkpt lat="44.82625" lon="2.04005">
        <ele>590.336608887</ele>
        <time>2015-09-24T08:47:34.507Z</time>
      </trkpt>
      <trkpt lat="44.82633" lon="2.04003">
        <ele>590.439941406</ele>
        <time>2015-09-24T08:47:52.655Z</time>
      </trkpt>
      <trkpt lat="44.82634" lon="2.04002">
        <ele>590.444335938</ele>
        <time>2015-09-24T08:47:53.556Z</time>
      </trkpt>
      <trkpt lat="44.82642" lon="2.03996">
        <ele>590.748474121</ele>
        <time>2015-09-24T08:48:02.653Z</time>
      </trkpt>
      <trkpt lat="44.82642" lon="2.03995">
        <ele>590.770629883</ele>
        <time>2015-09-24T08:48:03.561Z</time>
      </trkpt>
      <trkpt lat="44.82648" lon="2.03989">
        <ele>590.622924805</ele>
        <time>2015-09-24T08:48:14.669Z</time>
      </trkpt>
      <trkpt lat="44.8265" lon="2.03988">
        <ele>590.709228516</ele>
        <time>2015-09-24T08:48:15.541Z</time>
      </trkpt>
      <trkpt lat="44.82657" lon="2.03981">
        <ele>590.546691895</ele>
        <time>2015-09-24T08:48:24.665Z</time>
      </trkpt>
      <trkpt lat="44.82659" lon="2.03979">
        <ele>590.556274414</ele>
        <time>2015-09-24T08:48:25.66Z</time>
      </trkpt>
      <trkpt lat="44.82667" lon="2.03975">
        <ele>590.742004395</ele>
        <time>2015-09-24T08:48:32.603Z</time>
      </trkpt>
      <trkpt lat="44.82668" lon="2.03973">
        <ele>590.862182617</ele>
        <time>2015-09-24T08:48:33.565Z</time>
      </trkpt>
      <trkpt lat="44.82672" lon="2.03962">
        <ele>588.97265625</ele>
        <time>2015-09-24T08:49:21.651Z</time>
      </trkpt>
      <trkpt lat="44.82673" lon="2.03961">
        <ele>588.863342285</ele>
        <time>2015-09-24T08:49:22.56Z</time>
      </trkpt>
      <trkpt lat="44.82676" lon="2.0395">
        <ele>588.011169434</ele>
        <time>2015-09-24T08:49:29.663Z</time>
      </trkpt>
      <trkpt lat="44.82677" lon="2.03949">
        <ele>587.878112793</ele>
        <time>2015-09-24T08:49:30.558Z</time>
      </trkpt>
      <trkpt lat="44.8267" lon="2.03952">
        <ele>584.496887207</ele>
        <time>2015-09-24T08:50:13.621Z</time>
      </trkpt>
      <trkpt lat="44.82667" lon="2.03955">
        <ele>584.315979004</ele>
        <time>2015-09-24T08:50:14.558Z</time>
      </trkpt>
      <trkpt lat="44.8266" lon="2.03963">
        <ele>583.295288086</ele>
        <time>2015-09-24T08:50:24.975Z</time>
      </trkpt>
      <trkpt lat="44.8266" lon="2.03962">
        <ele>583.217773438</ele>
        <time>2015-09-24T08:50:25.59Z</time>
      </trkpt>
      <trkpt lat="44.82663" lon="2.03974">
        <ele>584.801757812</ele>
        <time>2015-09-24T08:51:29.706Z</time>
      </trkpt>
      <trkpt lat="44.82665" lon="2.03974">
        <ele>585.06060791</ele>
        <time>2015-09-24T08:51:30.565Z</time>
      </trkpt>
      <trkpt lat="44.82673" lon="2.03969">
        <ele>586.686523438</ele>
        <time>2015-09-24T08:51:37.632Z</time>
      </trkpt>
      <trkpt lat="44.82674" lon="2.03968">
        <ele>586.942626953</ele>
        <time>2015-09-24T08:51:38.554Z</time>
      </trkpt>
      <trkpt lat="44.82681" lon="2.03963">
        <ele>589.310241699</ele>
        <time>2015-09-24T08:51:46.604Z</time>
      </trkpt>
      <trkpt lat="44.82682" lon="2.03962">
        <ele>589.57409668</ele>
        <time>2015-09-24T08:51:47.87Z</time>
      </trkpt>
      <trkpt lat="44.8269" lon="2.03958">
        <ele>591.085876465</ele>
        <time>2015-09-24T08:51:55.717Z</time>
      </trkpt>
      <trkpt lat="44.82691" lon="2.03956">
        <ele>591.359863281</ele>
        <time>2015-09-24T08:51:56.538Z</time>
      </trkpt>
      <trkpt lat="44.82699" lon="2.0395">
        <ele>589.852783203</ele>
        <time>2015-09-24T08:52:31.713Z</time>
      </trkpt>
      <trkpt lat="44.827" lon="2.0395">
        <ele>589.662231445</ele>
        <time>2015-09-24T08:52:32.534Z</time>
      </trkpt>
      <trkpt lat="44.82709" lon="2.03948">
        <ele>588.773681641</ele>
        <time>2015-09-24T08:52:38.785Z</time>
      </trkpt>
      <trkpt lat="44.8271" lon="2.03948">
        <ele>588.746520996</ele>
        <time>2015-09-24T08:52:39.534Z</time>
      </trkpt>
      <trkpt lat="44.82719" lon="2.03948">
        <ele>587.949462891</ele>
        <time>2015-09-24T08:52:45.758Z</time>
      </trkpt>
      <trkpt lat="44.82721" lon="2.03948">
        <ele>587.827697754</ele>
        <time>2015-09-24T08:52:46.556Z</time>
      </trkpt>
      <trkpt lat="44.8273" lon="2.03949">
        <ele>587.368591309</ele>
        <time>2015-09-24T08:52:50.719Z</time>
      </trkpt>
      <trkpt lat="44.82731" lon="2.0395">
        <ele>587.366394043</ele>
        <time>2015-09-24T08:52:51.557Z</time>
      </trkpt>
      <trkpt lat="44.82737" lon="2.03958">
        <ele>587.089660645</ele>
        <time>2015-09-24T08:52:55.656Z</time>
      </trkpt>
      <trkpt lat="44.82738" lon="2.03959">
        <ele>586.945922852</ele>
        <time>2015-09-24T08:52:56.553Z</time>
      </trkpt>
      <trkpt lat="44.82743" lon="2.03968">
        <ele>586.173828125</ele>
        <time>2015-09-24T08:53:02.657Z</time>
      </trkpt>
      <trkpt lat="44.82743" lon="2.0397">
        <ele>586.056091309</ele>
        <time>2015-09-24T08:53:03.545Z</time>
      </trkpt>
      <trkpt lat="44.82745" lon="2.03981">
        <ele>585.708312988</ele>
        <time>2015-09-24T08:53:08.697Z</time>
      </trkpt>
      <trkpt lat="44.82745" lon="2.03983">
        <ele>585.659545898</ele>
        <time>2015-09-24T08:53:09.602Z</time>
      </trkpt>
      <trkpt lat="44.82748" lon="2.03994">
        <ele>585.469116211</ele>
        <time>2015-09-24T08:53:14.701Z</time>
      </trkpt>
      <trkpt lat="44.82749" lon="2.03996">
        <ele>585.463134766</ele>
        <time>2015-09-24T08:53:15.539Z</time>
      </trkpt>
      <trkpt lat="44.82753" lon="2.04007">
        <ele>584.742675781</ele>
        <time>2015-09-24T08:53:24.652Z</time>
      </trkpt>
      <trkpt lat="44.82753" lon="2.0401">
        <ele>584.616577148</ele>
        <time>2015-09-24T08:53:25.539Z</time>
      </trkpt>
      <trkpt lat="44.82753" lon="2.0402">
        <ele>584.179931641</ele>
        <time>2015-09-24T08:53:30.595Z</time>
      </trkpt>
      <trkpt lat="44.82754" lon="2.04022">
        <ele>584.073303223</ele>
        <time>2015-09-24T08:53:31.534Z</time>
      </trkpt>
      <trkpt lat="44.82756" lon="2.04032">
        <ele>583.885620117</ele>
        <time>2015-09-24T08:53:37.733Z</time>
      </trkpt>
      <trkpt lat="44.82757" lon="2.04035">
        <ele>583.869628906</ele>
        <time>2015-09-24T08:53:38.534Z</time>
      </trkpt>
      <trkpt lat="44.82759" lon="2.04047">
        <ele>583.646179199</ele>
        <time>2015-09-24T08:53:57.657Z</time>
      </trkpt>
      <trkpt lat="44.8276" lon="2.04048">
        <ele>583.625244141</ele>
        <time>2015-09-24T08:53:58.559Z</time>
      </trkpt>
      <trkpt lat="44.82762" lon="2.04059">
        <ele>583.499938965</ele>
        <time>2015-09-24T08:54:04.656Z</time>
      </trkpt>
      <trkpt lat="44.82763" lon="2.04061">
        <ele>583.448486328</ele>
        <time>2015-09-24T08:54:05.593Z</time>
      </trkpt>
      <trkpt lat="44.82764" lon="2.04073">
        <ele>583.289489746</ele>
        <time>2015-09-24T08:54:14.657Z</time>
      </trkpt>
      <trkpt lat="44.82762" lon="2.04076">
        <ele>583.194213867</ele>
        <time>2015-09-24T08:54:15.556Z</time>
      </trkpt>
      <trkpt lat="44.82761" lon="2.04087">
        <ele>583.381530762</ele>
        <time>2015-09-24T08:54:46.654Z</time>
      </trkpt>
      <trkpt lat="44.8276" lon="2.04088">
        <ele>583.474243164</ele>
        <time>2015-09-24T08:54:47.557Z</time>
      </trkpt>
      <trkpt lat="44.82765" lon="2.04098">
        <ele>583.995422363</ele>
        <time>2015-09-24T08:55:09.686Z</time>
      </trkpt>
      <trkpt lat="44.82765" lon="2.041">
        <ele>583.868896484</ele>
        <time>2015-09-24T08:55:10.559Z</time>
      </trkpt>
      <trkpt lat="44.82763" lon="2.04111">
        <ele>583.064697266</ele>
        <time>2015-09-24T08:55:19.653Z</time>
      </trkpt>
      <trkpt lat="44.82761" lon="2.04113">
        <ele>582.971984863</ele>
        <time>2015-09-24T08:55:20.567Z</time>
      </trkpt>
      <trkpt lat="44.82755" lon="2.04122">
        <ele>582.948852539</ele>
        <time>2015-09-24T08:55:32.677Z</time>
      </trkpt>
      <trkpt lat="44.82755" lon="2.04123">
        <ele>582.937988281</ele>
        <time>2015-09-24T08:55:33.568Z</time>
      </trkpt>
      <trkpt lat="44.82748" lon="2.0413">
        <ele>582.732788086</ele>
        <time>2015-09-24T08:55:48.665Z</time>
      </trkpt>
      <trkpt lat="44.82747" lon="2.0413">
        <ele>582.807006836</ele>
        <time>2015-09-24T08:55:49.572Z</time>
      </trkpt>
      <trkpt lat="44.82738" lon="2.04129">
        <ele>583.257141113</ele>
        <time>2015-09-24T08:56:08.63Z</time>
      </trkpt>
      <trkpt lat="44.82738" lon="2.04129">
        <ele>583.119689941</ele>
        <time>2015-09-24T08:56:09.538Z</time>
      </trkpt>
      <trkpt lat="44.82734" lon="2.04139">
        <ele>581.522338867</ele>
        <time>2015-09-24T08:57:05.599Z</time>
      </trkpt>
      <trkpt lat="44.82734" lon="2.04141">
        <ele>581.347473145</ele>
        <time>2015-09-24T08:57:06.55Z</time>
      </trkpt>
      <trkpt lat="44.82731" lon="2.04153">
        <ele>580.729736328</ele>
        <time>2015-09-24T08:57:13.602Z</time>
      </trkpt>
      <trkpt lat="44.8273" lon="2.04155">
        <ele>580.774597168</ele>
        <time>2015-09-24T08:57:14.566Z</time>
      </trkpt>
      <trkpt lat="44.82728" lon="2.04167">
        <ele>580.945922852</ele>
        <time>2015-09-24T08:57:22.617Z</time>
      </trkpt>
      <trkpt lat="44.82728" lon="2.04168">
        <ele>580.930358887</ele>
        <time>2015-09-24T08:57:23.539Z</time>
      </trkpt>
      <trkpt lat="44.8273" lon="2.04179">
        <ele>580.907714844</ele>
        <time>2015-09-24T08:57:32.624Z</time>
      </trkpt>
      <trkpt lat="44.82731" lon="2.0418">
        <ele>580.881225586</ele>
        <time>2015-09-24T08:57:33.495Z</time>
      </trkpt>
      <trkpt lat="44.82731" lon="2.04191">
        <ele>580.635681152</ele>
        <time>2015-09-24T08:57:42.604Z</time>
      </trkpt>
      <trkpt lat="44.82731" lon="2.04193">
        <ele>580.567565918</ele>
        <time>2015-09-24T08:57:43.537Z</time>
      </trkpt>
      <trkpt lat="44.82736" lon="2.04203">
        <ele>580.448791504</ele>
        <time>2015-09-24T08:57:50.637Z</time>
      </trkpt>
      <trkpt lat="44.82736" lon="2.04204">
        <ele>580.469970703</ele>
        <time>2015-09-24T08:57:51.561Z</time>
      </trkpt>
      <trkpt lat="44.82742" lon="2.04213">
        <ele>580.867675781</ele>
        <time>2015-09-24T08:58:00.664Z</time>
      </trkpt>
      <trkpt lat="44.82743" lon="2.04214">
        <ele>580.889099121</ele>
        <time>2015-09-24T08:58:01.73Z</time>
      </trkpt>
      <trkpt lat="44.8275" lon="2.04218">
        <ele>581.182312012</ele>
        <time>2015-09-24T08:58:08.658Z</time>
      </trkpt>
      <trkpt lat="44.82751" lon="2.0422">
        <ele>581.261230469</ele>
        <time>2015-09-24T08:58:09.624Z</time>
      </trkpt>
      <trkpt lat="44.82758" lon="2.04227">
        <ele>581.866210938</ele>
        <time>2015-09-24T08:58:19.665Z</time>
      </trkpt>
      <trkpt lat="44.82758" lon="2.04228">
        <ele>581.842651367</ele>
        <time>2015-09-24T08:58:20.622Z</time>
      </trkpt>
      <trkpt lat="44.82762" lon="2.04237">
        <ele>581.999145508</ele>
        <time>2015-09-24T08:58:27.668Z</time>
      </trkpt>
      <trkpt lat="44.82763" lon="2.0424">
        <ele>582.054443359</ele>
        <time>2015-09-24T08:58:28.582Z</time>
      </trkpt>
      <trkpt lat="44.82766" lon="2.0425">
        <ele>581.721313477</ele>
        <time>2015-09-24T08:58:37.718Z</time>
      </trkpt>
      <trkpt lat="44.82767" lon="2.04251">
        <ele>581.68359375</ele>
        <time>2015-09-24T08:58:38.669Z</time>
      </trkpt>
      <trkpt lat="44.8277" lon="2.04262">
        <ele>581.853027344</ele>
        <time>2015-09-24T08:58:46.66Z</time>
      </trkpt>
      <trkpt lat="44.8277" lon="2.04263">
        <ele>581.843994141</ele>
        <time>2015-09-24T08:58:47.568Z</time>
      </trkpt>
      <trkpt lat="44.82775" lon="2.04273">
        <ele>582.152832031</ele>
        <time>2015-09-24T08:58:54.665Z</time>
      </trkpt>
      <trkpt lat="44.82775" lon="2.04275">
        <ele>582.223754883</ele>
        <time>2015-09-24T08:58:55.568Z</time>
      </trkpt>
      <trkpt lat="44.8278" lon="2.04282">
        <ele>582.4609375</ele>
        <time>2015-09-24T08:59:03.665Z</time>
      </trkpt>
      <trkpt lat="44.82781" lon="2.04285">
        <ele>582.377441406</ele>
        <time>2015-09-24T08:59:04.557Z</time>
      </trkpt>
      <trkpt lat="44.82784" lon="2.04296">
        <ele>582.305541992</ele>
        <time>2015-09-24T08:59:10.653Z</time>
      </trkpt>
      <trkpt lat="44.82784" lon="2.04297">
        <ele>582.274719238</ele>
        <time>2015-09-24T08:59:11.564Z</time>
      </trkpt>
      <trkpt lat="44.82789" lon="2.04307">
        <ele>582.223083496</ele>
        <time>2015-09-24T08:59:21.603Z</time>
      </trkpt>
      <trkpt lat="44.82789" lon="2.04309">
        <ele>582.13470459</ele>
        <time>2015-09-24T08:59:22.541Z</time>
      </trkpt>
      <trkpt lat="44.82794" lon="2.04319">
        <ele>581.464904785</ele>
        <time>2015-09-24T08:59:34.663Z</time>
      </trkpt>
      <trkpt lat="44.82794" lon="2.04321">
        <ele>581.383178711</ele>
        <time>2015-09-24T08:59:35.557Z</time>
      </trkpt>
      <trkpt lat="44.82798" lon="2.04333">
        <ele>581.302856445</ele>
        <time>2015-09-24T08:59:44.771Z</time>
      </trkpt>
      <trkpt lat="44.82798" lon="2.04334">
        <ele>581.328308105</ele>
        <time>2015-09-24T08:59:45.564Z</time>
      </trkpt>
      <trkpt lat="44.82802" lon="2.04344">
        <ele>580.868225098</ele>
        <time>2015-09-24T08:59:52.932Z</time>
      </trkpt>
      <trkpt lat="44.82802" lon="2.04346">
        <ele>580.731323242</ele>
        <time>2015-09-24T08:59:53.539Z</time>
      </trkpt>
      <trkpt lat="44.82807" lon="2.04355">
        <ele>580.262573242</ele>
        <time>2015-09-24T09:00:04.007Z</time>
      </trkpt>
      <trkpt lat="44.82808" lon="2.04357">
        <ele>580.258850098</ele>
        <time>2015-09-24T09:00:04.533Z</time>
      </trkpt>
      <trkpt lat="44.82811" lon="2.04368">
        <ele>579.906860352</ele>
        <time>2015-09-24T09:00:11.659Z</time>
      </trkpt>
      <trkpt lat="44.82812" lon="2.04369">
        <ele>579.924438477</ele>
        <time>2015-09-24T09:00:12.614Z</time>
      </trkpt>
      <trkpt lat="44.82816" lon="2.0438">
        <ele>579.947875977</ele>
        <time>2015-09-24T09:00:19.666Z</time>
      </trkpt>
      <trkpt lat="44.82816" lon="2.04382">
        <ele>579.94519043</ele>
        <time>2015-09-24T09:00:20.562Z</time>
      </trkpt>
      <trkpt lat="44.82819" lon="2.04393">
        <ele>580.026611328</ele>
        <time>2015-09-24T09:00:30.724Z</time>
      </trkpt>
      <trkpt lat="44.82819" lon="2.04394">
        <ele>579.98223877</ele>
        <time>2015-09-24T09:00:31.557Z</time>
      </trkpt>
      <trkpt lat="44.82824" lon="2.04405">
        <ele>580.341430664</ele>
        <time>2015-09-24T09:00:38.605Z</time>
      </trkpt>
      <trkpt lat="44.82825" lon="2.04407">
        <ele>580.485839844</ele>
        <time>2015-09-24T09:00:39.538Z</time>
      </trkpt>
      <trkpt lat="44.82828" lon="2.04417">
        <ele>580.863830566</ele>
        <time>2015-09-24T09:00:46.612Z</time>
      </trkpt>
      <trkpt lat="44.82828" lon="2.0442">
        <ele>580.818481445</ele>
        <time>2015-09-24T09:00:47.568Z</time>
      </trkpt>
      <trkpt lat="44.82831" lon="2.04431">
        <ele>580.935424805</ele>
        <time>2015-09-24T09:00:55.657Z</time>
      </trkpt>
      <trkpt lat="44.82831" lon="2.04432">
        <ele>581.020629883</ele>
        <time>2015-09-24T09:00:56.465Z</time>
      </trkpt>
      <trkpt lat="44.82836" lon="2.04442">
        <ele>581.527404785</ele>
        <time>2015-09-24T09:01:04.656Z</time>
      </trkpt>
      <trkpt lat="44.82836" lon="2.04442">
        <ele>581.553100586</ele>
        <time>2015-09-24T09:01:05.582Z</time>
      </trkpt>
      <trkpt lat="44.82833" lon="2.04452">
        <ele>581.452087402</ele>
        <time>2015-09-24T09:01:14.671Z</time>
      </trkpt>
      <trkpt lat="44.82832" lon="2.04453">
        <ele>581.406188965</ele>
        <time>2015-09-24T09:01:15.559Z</time>
      </trkpt>
      <trkpt lat="44.82832" lon="2.04465">
        <ele>581.383789062</ele>
        <time>2015-09-24T09:01:23.667Z</time>
      </trkpt>
      <trkpt lat="44.82833" lon="2.04469">
        <ele>581.434814453</ele>
        <time>2015-09-24T09:01:24.593Z</time>
      </trkpt>
      <trkpt lat="44.82835" lon="2.04481">
        <ele>581.97442627</ele>
        <time>2015-09-24T09:01:34.655Z</time>
      </trkpt>
      <trkpt lat="44.82836" lon="2.04483">
        <ele>582.105285645</ele>
        <time>2015-09-24T09:01:35.536Z</time>
      </trkpt>
      <trkpt lat="44.82841" lon="2.04491">
        <ele>582.811401367</ele>
        <time>2015-09-24T09:01:40.722Z</time>
      </trkpt>
      <trkpt lat="44.82843" lon="2.04493">
        <ele>582.90826416</ele>
        <time>2015-09-24T09:01:41.535Z</time>
      </trkpt>
      <trkpt lat="44.82848" lon="2.04501">
        <ele>583.225463867</ele>
        <time>2015-09-24T09:01:51.649Z</time>
      </trkpt>
      <trkpt lat="44.82849" lon="2.04502">
        <ele>583.285583496</ele>
        <time>2015-09-24T09:01:52.538Z</time>
      </trkpt>
      <trkpt lat="44.82856" lon="2.0451">
        <ele>583.250427246</ele>
        <time>2015-09-24T09:02:00.646Z</time>
      </trkpt>
      <trkpt lat="44.82856" lon="2.04511">
        <ele>583.321350098</ele>
        <time>2015-09-24T09:02:01.574Z</time>
      </trkpt>
      <trkpt lat="44.82862" lon="2.0452">
        <ele>583.643127441</ele>
        <time>2015-09-24T09:02:08.629Z</time>
      </trkpt>
      <trkpt lat="44.82863" lon="2.0452">
        <ele>583.652893066</ele>
        <time>2015-09-24T09:02:09.535Z</time>
      </trkpt>
      <trkpt lat="44.82868" lon="2.04529">
        <ele>583.159667969</ele>
        <time>2015-09-24T09:02:17.653Z</time>
      </trkpt>
      <trkpt lat="44.82869" lon="2.0453">
        <ele>583.039367676</ele>
        <time>2015-09-24T09:02:18.54Z</time>
      </trkpt>
      <trkpt lat="44.82875" lon="2.04537">
        <ele>582.16027832</ele>
        <time>2015-09-24T09:02:29.664Z</time>
      </trkpt>
      <trkpt lat="44.82876" lon="2.04539">
        <ele>582.096801758</ele>
        <time>2015-09-24T09:02:30.566Z</time>
      </trkpt>
      <trkpt lat="44.82882" lon="2.04548">
        <ele>581.626403809</ele>
        <time>2015-09-24T09:02:39.662Z</time>
      </trkpt>
      <trkpt lat="44.82883" lon="2.04549">
        <ele>581.6328125</ele>
        <time>2015-09-24T09:02:40.555Z</time>
      </trkpt>
      <trkpt lat="44.82887" lon="2.04559">
        <ele>580.335876465</ele>
        <time>2015-09-24T09:03:10.693Z</time>
      </trkpt>
      <trkpt lat="44.82887" lon="2.04561">
        <ele>580.294921875</ele>
        <time>2015-09-24T09:03:11.569Z</time>
      </trkpt>
      <trkpt lat="44.82887" lon="2.04573">
        <ele>580.198303223</ele>
        <time>2015-09-24T09:03:16.68Z</time>
      </trkpt>
      <trkpt lat="44.82887" lon="2.04576">
        <ele>580.225341797</ele>
        <time>2015-09-24T09:03:17.576Z</time>
      </trkpt>
      <trkpt lat="44.82882" lon="2.04584">
        <ele>580.553405762</ele>
        <time>2015-09-24T09:03:25.465Z</time>
      </trkpt>
      <trkpt lat="44.8288" lon="2.04585">
        <ele>580.642150879</ele>
        <time>2015-09-24T09:03:25.496Z</time>
      </trkpt>
      <trkpt lat="44.82873" lon="2.04588">
        <ele>582.247375488</ele>
        <time>2015-09-24T09:03:40.696Z</time>
      </trkpt>
      <trkpt lat="44.82871" lon="2.04589">
        <ele>582.313720703</ele>
        <time>2015-09-24T09:03:41.505Z</time>
      </trkpt>
      <trkpt lat="44.82864" lon="2.04594">
        <ele>582.362548828</ele>
        <time>2015-09-24T09:03:46.661Z</time>
      </trkpt>
      <trkpt lat="44.82862" lon="2.04595">
        <ele>582.372924805</ele>
        <time>2015-09-24T09:03:47.607Z</time>
      </trkpt>
      <trkpt lat="44.82854" lon="2.04599">
        <ele>582.49987793</ele>
        <time>2015-09-24T09:03:54.67Z</time>
      </trkpt>
      <trkpt lat="44.82853" lon="2.04599">
        <ele>582.513183594</ele>
        <time>2015-09-24T09:03:55.562Z</time>
      </trkpt>
      <trkpt lat="44.82845" lon="2.04603">
        <ele>583.165649414</ele>
        <time>2015-09-24T09:04:03.699Z</time>
      </trkpt>
      <trkpt lat="44.82843" lon="2.04604">
        <ele>583.172363281</ele>
        <time>2015-09-24T09:04:04.512Z</time>
      </trkpt>
      <trkpt lat="44.82836" lon="2.0461">
        <ele>583.959411621</ele>
        <time>2015-09-24T09:04:18.664Z</time>
      </trkpt>
      <trkpt lat="44.82835" lon="2.04611">
        <ele>583.991210938</ele>
        <time>2015-09-24T09:04:19.581Z</time>
      </trkpt>
      <trkpt lat="44.82828" lon="2.04618">
        <ele>584.082519531</ele>
        <time>2015-09-24T09:04:29.666Z</time>
      </trkpt>
      <trkpt lat="44.82828" lon="2.04618">
        <ele>584.101806641</ele>
        <time>2015-09-24T09:04:30.561Z</time>
      </trkpt>
      <trkpt lat="44.8282" lon="2.04624">
        <ele>584.245239258</ele>
        <time>2015-09-24T09:04:38.64Z</time>
      </trkpt>
      <trkpt lat="44.8282" lon="2.04625">
        <ele>584.290893555</ele>
        <time>2015-09-24T09:04:39.53Z</time>
      </trkpt>
      <trkpt lat="44.82816" lon="2.04635">
        <ele>584.528564453</ele>
        <time>2015-09-24T09:04:48.664Z</time>
      </trkpt>
      <trkpt lat="44.82816" lon="2.04637">
        <ele>584.585144043</ele>
        <time>2015-09-24T09:04:49.553Z</time>
      </trkpt>
      <trkpt lat="44.8281" lon="2.04645">
        <ele>584.682373047</ele>
        <time>2015-09-24T09:04:57.522Z</time>
      </trkpt>
      <trkpt lat="44.82809" lon="2.04646">
        <ele>584.725769043</ele>
        <time>2015-09-24T09:04:58.57Z</time>
      </trkpt>
      <trkpt lat="44.82804" lon="2.04657">
        <ele>585.038696289</ele>
        <time>2015-09-24T09:05:09.541Z</time>
      </trkpt>
      <trkpt lat="44.82803" lon="2.04659">
        <ele>585.073181152</ele>
        <time>2015-09-24T09:05:10.54Z</time>
      </trkpt>
      <trkpt lat="44.828" lon="2.0467">
        <ele>585.681396484</ele>
        <time>2015-09-24T09:05:17.699Z</time>
      </trkpt>
      <trkpt lat="44.82799" lon="2.04671">
        <ele>585.790222168</ele>
        <time>2015-09-24T09:05:18.566Z</time>
      </trkpt>
      <trkpt lat="44.82795" lon="2.04682">
        <ele>586.109375</ele>
        <time>2015-09-24T09:05:27.643Z</time>
      </trkpt>
      <trkpt lat="44.82795" lon="2.04682">
        <ele>586.149658203</ele>
        <time>2015-09-24T09:05:28.565Z</time>
      </trkpt>
      <trkpt lat="44.82791" lon="2.04693">
        <ele>585.693908691</ele>
        <time>2015-09-24T09:05:38.607Z</time>
      </trkpt>
      <trkpt lat="44.82791" lon="2.04694">
        <ele>585.63848877</ele>
        <time>2015-09-24T09:05:39.538Z</time>
      </trkpt>
      <trkpt lat="44.82787" lon="2.04702">
        <ele>585.33190918</ele>
        <time>2015-09-24T09:05:45.604Z</time>
      </trkpt>
      <trkpt lat="44.82785" lon="2.04704">
        <ele>585.298034668</ele>
        <time>2015-09-24T09:05:46.535Z</time>
      </trkpt>
      <trkpt lat="44.82781" lon="2.04713">
        <ele>585.162109375</ele>
        <time>2015-09-24T09:05:54.268Z</time>
      </trkpt>
      <trkpt lat="44.8278" lon="2.04715">
        <ele>585.103881836</ele>
        <time>2015-09-24T09:05:54.654Z</time>
      </trkpt>
      <trkpt lat="44.82775" lon="2.04724">
        <ele>585.698425293</ele>
        <time>2015-09-24T09:06:04.687Z</time>
      </trkpt>
      <trkpt lat="44.82774" lon="2.04725">
        <ele>585.746154785</ele>
        <time>2015-09-24T09:06:05.566Z</time>
      </trkpt>
      <trkpt lat="44.82769" lon="2.04734">
        <ele>585.623901367</ele>
        <time>2015-09-24T09:06:14.717Z</time>
      </trkpt>
      <trkpt lat="44.82769" lon="2.04736">
        <ele>585.596923828</ele>
        <time>2015-09-24T09:06:15.573Z</time>
      </trkpt>
      <trkpt lat="44.82768" lon="2.04747">
        <ele>585.847412109</ele>
        <time>2015-09-24T09:06:22.701Z</time>
      </trkpt>
      <trkpt lat="44.82768" lon="2.04749">
        <ele>585.921875</ele>
        <time>2015-09-24T09:06:23.542Z</time>
      </trkpt>
      <trkpt lat="44.82768" lon="2.04761">
        <ele>586.406066895</ele>
        <time>2015-09-24T09:06:31.654Z</time>
      </trkpt>
      <trkpt lat="44.82768" lon="2.04763">
        <ele>586.506835938</ele>
        <time>2015-09-24T09:06:32.56Z</time>
      </trkpt>
      <trkpt lat="44.82763" lon="2.04773">
        <ele>587.63684082</ele>
        <time>2015-09-24T09:06:44.531Z</time>
      </trkpt>
      <trkpt lat="44.82762" lon="2.04773">
        <ele>587.62121582</ele>
        <time>2015-09-24T09:06:45.537Z</time>
      </trkpt>
      <trkpt lat="44.82754" lon="2.04773">
        <ele>587.591064453</ele>
        <time>2015-09-24T09:07:12.675Z</time>
      </trkpt>
      <trkpt lat="44.82753" lon="2.04774">
        <ele>587.725341797</ele>
        <time>2015-09-24T09:07:13.574Z</time>
      </trkpt>
      <trkpt lat="44.82759" lon="2.04783">
        <ele>591.719055176</ele>
        <time>2015-09-24T09:10:04.664Z</time>
      </trkpt>
      <trkpt lat="44.82759" lon="2.04783">
        <ele>591.713928223</ele>
        <time>2015-09-24T09:10:05.504Z</time>
      </trkpt>
      <trkpt lat="44.82754" lon="2.04792">
        <ele>591.136413574</ele>
        <time>2015-09-24T09:10:14.663Z</time>
      </trkpt>
      <trkpt lat="44.82753" lon="2.04794">
        <ele>591.069519043</ele>
        <time>2015-09-24T09:10:15.654Z</time>
      </trkpt>
      <trkpt lat="44.82761" lon="2.04794">
        <ele>590.324951172</ele>
        <time>2015-09-24T09:10:42.713Z</time>
      </trkpt>
      <trkpt lat="44.82763" lon="2.04794">
        <ele>590.312866211</ele>
        <time>2015-09-24T09:10:43.576Z</time>
      </trkpt>
      <trkpt lat="44.82762" lon="2.04806">
        <ele>591.135009766</ele>
        <time>2015-09-24T09:11:15.676Z</time>
      </trkpt>
      <trkpt lat="44.82761" lon="2.04807">
        <ele>591.204467773</ele>
        <time>2015-09-24T09:11:16.574Z</time>
      </trkpt>
      <trkpt lat="44.82764" lon="2.04818">
        <ele>591.384033203</ele>
        <time>2015-09-24T09:11:27.683Z</time>
      </trkpt>
      <trkpt lat="44.82764" lon="2.04821">
        <ele>591.371887207</ele>
        <time>2015-09-24T09:11:28.553Z</time>
      </trkpt>
      <trkpt lat="44.82768" lon="2.04832">
        <ele>591.595703125</ele>
        <time>2015-09-24T09:11:38.673Z</time>
      </trkpt>
      <trkpt lat="44.82768" lon="2.04833">
        <ele>591.680969238</ele>
        <time>2015-09-24T09:11:39.545Z</time>
      </trkpt>
      <trkpt lat="44.82767" lon="2.04844">
        <ele>591.713500977</ele>
        <time>2015-09-24T09:11:49.695Z</time>
      </trkpt>
      <trkpt lat="44.82769" lon="2.04846">
        <ele>591.691772461</ele>
        <time>2015-09-24T09:11:50.579Z</time>
      </trkpt>
      <trkpt lat="44.82767" lon="2.04857">
        <ele>591.918029785</ele>
        <time>2015-09-24T09:11:59.672Z</time>
      </trkpt>
      <trkpt lat="44.82766" lon="2.04858">
        <ele>591.93927002</ele>
        <time>2015-09-24T09:12:00.544Z</time>
      </trkpt>
      <trkpt lat="44.8276" lon="2.04866">
        <ele>592.013244629</ele>
        <time>2015-09-24T09:12:08.712Z</time>
      </trkpt>
      <trkpt lat="44.82761" lon="2.04869">
        <ele>591.913452148</ele>
        <time>2015-09-24T09:12:09.673Z</time>
      </trkpt>
      <trkpt lat="44.82762" lon="2.04881">
        <ele>591.165222168</ele>
        <time>2015-09-24T09:12:21.665Z</time>
      </trkpt>
      <trkpt lat="44.82763" lon="2.04883">
        <ele>591.114379883</ele>
        <time>2015-09-24T09:12:22.565Z</time>
      </trkpt>
      <trkpt lat="44.82765" lon="2.04894">
        <ele>590.915710449</ele>
        <time>2015-09-24T09:12:34.483Z</time>
      </trkpt>
      <trkpt lat="44.82764" lon="2.04895">
        <ele>590.893615723</ele>
        <time>2015-09-24T09:12:35.543Z</time>
      </trkpt>
      <trkpt lat="44.82765" lon="2.04908">
        <ele>589.966491699</ele>
        <time>2015-09-24T09:12:45.68Z</time>
      </trkpt>
      <trkpt lat="44.82764" lon="2.0491">
        <ele>589.859130859</ele>
        <time>2015-09-24T09:12:46.613Z</time>
      </trkpt>
      <trkpt lat="44.8276" lon="2.0492">
        <ele>589.265014648</ele>
        <time>2015-09-24T09:12:54.689Z</time>
      </trkpt>
      <trkpt lat="44.8276" lon="2.04921">
        <ele>589.150390625</ele>
        <time>2015-09-24T09:12:55.565Z</time>
      </trkpt>
      <trkpt lat="44.82755" lon="2.04931">
        <ele>589.353027344</ele>
        <time>2015-09-24T09:13:08.823Z</time>
      </trkpt>
      <trkpt lat="44.82755" lon="2.04932">
        <ele>589.393371582</ele>
        <time>2015-09-24T09:13:09.567Z</time>
      </trkpt>
      <trkpt lat="44.82752" lon="2.04943">
        <ele>590.050476074</ele>
        <time>2015-09-24T09:13:20.657Z</time>
      </trkpt>
      <trkpt lat="44.82751" lon="2.04944">
        <ele>590.161560059</ele>
        <time>2015-09-24T09:13:21.551Z</time>
      </trkpt>
      <trkpt lat="44.82746" lon="2.04952">
        <ele>590.391540527</ele>
        <time>2015-09-24T09:13:26.664Z</time>
      </trkpt>
      <trkpt lat="44.82745" lon="2.04953">
        <ele>590.390319824</ele>
        <time>2015-09-24T09:13:27.563Z</time>
      </trkpt>
      <trkpt lat="44.82738" lon="2.0496">
        <ele>590.530395508</ele>
        <time>2015-09-24T09:13:33.606Z</time>
      </trkpt>
      <trkpt lat="44.82738" lon="2.04962">
        <ele>590.582458496</ele>
        <time>2015-09-24T09:13:34.54Z</time>
      </trkpt>
      <trkpt lat="44.8273" lon="2.04968">
        <ele>590.688171387</ele>
        <time>2015-09-24T09:13:41.541Z</time>
      </trkpt>
      <trkpt lat="44.82727" lon="2.04968">
        <ele>590.712097168</ele>
        <time>2015-09-24T09:13:42.55Z</time>
      </trkpt>
      <trkpt lat="44.82719" lon="2.04972">
        <ele>589.16027832</ele>
        <time>2015-09-24T09:14:07.778Z</time>
      </trkpt>
      <trkpt lat="44.82718" lon="2.04973">
        <ele>588.983764648</ele>
        <time>2015-09-24T09:14:08.56Z</time>
      </trkpt>
      <trkpt lat="44.82711" lon="2.04975">
        <ele>588.789123535</ele>
        <time>2015-09-24T09:14:15.619Z</time>
      </trkpt>
      <trkpt lat="44.82709" lon="2.04976">
        <ele>588.740966797</ele>
        <time>2015-09-24T09:14:16.5Z</time>
      </trkpt>
      <trkpt lat="44.82701" lon="2.04978">
        <ele>588.889587402</ele>
        <time>2015-09-24T09:14:27.599Z</time>
      </trkpt>
      <trkpt lat="44.827" lon="2.04978">
        <ele>588.923950195</ele>
        <time>2015-09-24T09:14:28.56Z</time>
      </trkpt>
      <trkpt lat="44.82695" lon="2.04968">
        <ele>587.83416748</ele>
        <time>2015-09-24T09:15:37.703Z</time>
      </trkpt>
      <trkpt lat="44.82695" lon="2.04968">
        <ele>587.846252441</ele>
        <time>2015-09-24T09:15:38.56Z</time>
      </trkpt>
      <trkpt lat="44.82689" lon="2.0496">
        <ele>587.764770508</ele>
        <time>2015-09-24T09:16:13.603Z</time>
      </trkpt>
      <trkpt lat="44.82688" lon="2.04959">
        <ele>587.804321289</ele>
        <time>2015-09-24T09:16:14.55Z</time>
      </trkpt>
      <trkpt lat="44.82683" lon="2.04951">
        <ele>587.192016602</ele>
        <time>2015-09-24T09:16:35.716Z</time>
      </trkpt>
      <trkpt lat="44.82682" lon="2.0495">
        <ele>587.119628906</ele>
        <time>2015-09-24T09:16:36.551Z</time>
      </trkpt>
      <trkpt lat="44.82674" lon="2.04945">
        <ele>586.020568848</ele>
        <time>2015-09-24T09:16:45.604Z</time>
      </trkpt>
      <trkpt lat="44.82672" lon="2.04944">
        <ele>585.936523438</ele>
        <time>2015-09-24T09:16:46.533Z</time>
      </trkpt>
      <trkpt lat="44.82664" lon="2.04943">
        <ele>585.323608398</ele>
        <time>2015-09-24T09:16:53.858Z</time>
      </trkpt>
      <trkpt lat="44.82662" lon="2.04942">
        <ele>585.280639648</ele>
        <time>2015-09-24T09:16:54.601Z</time>
      </trkpt>
      <trkpt lat="44.82657" lon="2.04932">
        <ele>584.793823242</ele>
        <time>2015-09-24T09:17:01.889Z</time>
      </trkpt>
      <trkpt lat="44.82655" lon="2.0493">
        <ele>584.716918945</ele>
        <time>2015-09-24T09:17:02.498Z</time>
      </trkpt>
      <trkpt lat="44.82648" lon="2.04923">
        <ele>585.366394043</ele>
        <time>2015-09-24T09:17:10.723Z</time>
      </trkpt>
      <trkpt lat="44.82647" lon="2.04922">
        <ele>585.388061523</ele>
        <time>2015-09-24T09:17:11.566Z</time>
      </trkpt>
      <trkpt lat="44.82639" lon="2.04922">
        <ele>584.690063477</ele>
        <time>2015-09-24T09:17:22.663Z</time>
      </trkpt>
      <trkpt lat="44.82638" lon="2.04923">
        <ele>584.649047852</ele>
        <time>2015-09-24T09:17:23.47Z</time>
      </trkpt>
      <trkpt lat="44.82629" lon="2.04923">
        <ele>584.839233398</ele>
        <time>2015-09-24T09:17:42.656Z</time>
      </trkpt>
      <trkpt lat="44.82627" lon="2.04922">
        <ele>584.787475586</ele>
        <time>2015-09-24T09:17:43.609Z</time>
      </trkpt>
      <trkpt lat="44.82619" lon="2.04917">
        <ele>583.950683594</ele>
        <time>2015-09-24T09:17:49.685Z</time>
      </trkpt>
      <trkpt lat="44.82616" lon="2.04916">
        <ele>583.816223145</ele>
        <time>2015-09-24T09:17:50.567Z</time>
      </trkpt>
      <trkpt lat="44.82609" lon="2.04912">
        <ele>583.495605469</ele>
        <time>2015-09-24T09:17:55.656Z</time>
      </trkpt>
      <trkpt lat="44.82608" lon="2.04911">
        <ele>583.37902832</ele>
        <time>2015-09-24T09:17:56.553Z</time>
      </trkpt>
      <trkpt lat="44.82599" lon="2.04913">
        <ele>582.100585938</ele>
        <time>2015-09-24T09:18:11.597Z</time>
      </trkpt>
      <trkpt lat="44.82599" lon="2.04914">
        <ele>582.034851074</ele>
        <time>2015-09-24T09:18:12.557Z</time>
      </trkpt>
      <trkpt lat="44.82593" lon="2.04923">
        <ele>580.581054688</ele>
        <time>2015-09-24T09:18:25.693Z</time>
      </trkpt>
      <trkpt lat="44.82593" lon="2.04924">
        <ele>580.508789062</ele>
        <time>2015-09-24T09:18:26.586Z</time>
      </trkpt>
      <trkpt lat="44.82588" lon="2.04933">
        <ele>580.452697754</ele>
        <time>2015-09-24T09:18:33.657Z</time>
      </trkpt>
      <trkpt lat="44.82587" lon="2.04934">
        <ele>580.471313477</ele>
        <time>2015-09-24T09:18:34.677Z</time>
      </trkpt>
      <trkpt lat="44.82581" lon="2.04942">
        <ele>580.909362793</ele>
        <time>2015-09-24T09:18:47.676Z</time>
      </trkpt>
      <trkpt lat="44.82581" lon="2.04943">
        <ele>580.937255859</ele>
        <time>2015-09-24T09:18:48.549Z</time>
      </trkpt>
      <trkpt lat="44.82577" lon="2.04954">
        <ele>581.049621582</ele>
        <time>2015-09-24T09:19:00.649Z</time>
      </trkpt>
      <trkpt lat="44.82577" lon="2.04956">
        <ele>581.086303711</ele>
        <time>2015-09-24T09:19:01.592Z</time>
      </trkpt>
      <trkpt lat="44.82575" lon="2.04965">
        <ele>581.720275879</ele>
        <time>2015-09-24T09:19:13.658Z</time>
      </trkpt>
      <trkpt lat="44.82572" lon="2.04969">
        <ele>581.829284668</ele>
        <time>2015-09-24T09:19:14.56Z</time>
      </trkpt>
      <trkpt lat="44.82571" lon="2.0498">
        <ele>582.519897461</ele>
        <time>2015-09-24T09:19:29.616Z</time>
      </trkpt>
      <trkpt lat="44.82571" lon="2.04982">
        <ele>582.586791992</ele>
        <time>2015-09-24T09:19:30.489Z</time>
      </trkpt>
      <trkpt lat="44.82567" lon="2.04992">
        <ele>583.318664551</ele>
        <time>2015-09-24T09:19:37.617Z</time>
      </trkpt>
      <trkpt lat="44.82564" lon="2.04994">
        <ele>583.390441895</ele>
        <time>2015-09-24T09:19:38.546Z</time>
      </trkpt>
      <trkpt lat="44.82557" lon="2.04999">
        <ele>582.070617676</ele>
        <time>2015-09-24T09:19:54.668Z</time>
      </trkpt>
      <trkpt lat="44.82556" lon="2.04999">
        <ele>581.973510742</ele>
        <time>2015-09-24T09:19:55.619Z</time>
      </trkpt>
      <trkpt lat="44.82548" lon="2.04997">
        <ele>582.54699707</ele>
        <time>2015-09-24T09:20:14.652Z</time>
      </trkpt>
      <trkpt lat="44.82546" lon="2.04998">
        <ele>582.448791504</ele>
        <time>2015-09-24T09:20:15.521Z</time>
      </trkpt>
      <trkpt lat="44.82539" lon="2.05002">
        <ele>581.932617188</ele>
        <time>2015-09-24T09:20:22.67Z</time>
      </trkpt>
      <trkpt lat="44.82538" lon="2.05002">
        <ele>581.850524902</ele>
        <time>2015-09-24T09:20:23.562Z</time>
      </trkpt>
      <trkpt lat="44.82531" lon="2.05007">
        <ele>580.979736328</ele>
        <time>2015-09-24T09:20:34.735Z</time>
      </trkpt>
      <trkpt lat="44.82529" lon="2.05007">
        <ele>580.873352051</ele>
        <time>2015-09-24T09:20:35.547Z</time>
      </trkpt>
      <trkpt lat="44.82521" lon="2.0501">
        <ele>580.319641113</ele>
        <time>2015-09-24T09:20:45.617Z</time>
      </trkpt>
      <trkpt lat="44.8252" lon="2.05011">
        <ele>580.387268066</ele>
        <time>2015-09-24T09:20:46.531Z</time>
      </trkpt>
      <trkpt lat="44.82512" lon="2.0501">
        <ele>581.725219727</ele>
        <time>2015-09-24T09:21:00.668Z</time>
      </trkpt>
      <trkpt lat="44.82511" lon="2.05011">
        <ele>581.713256836</ele>
        <time>2015-09-24T09:21:01.577Z</time>
      </trkpt>
      <trkpt lat="44.82503" lon="2.05017">
        <ele>581.143493652</ele>
        <time>2015-09-24T09:21:14.668Z</time>
      </trkpt>
      <trkpt lat="44.82502" lon="2.05018">
        <ele>581.025695801</ele>
        <time>2015-09-24T09:21:15.499Z</time>
      </trkpt>
      <trkpt lat="44.82494" lon="2.0502">
        <ele>580.912597656</ele>
        <time>2015-09-24T09:21:20.649Z</time>
      </trkpt>
      <trkpt lat="44.82493" lon="2.05022">
        <ele>580.95123291</ele>
        <time>2015-09-24T09:21:21.566Z</time>
      </trkpt>
      <trkpt lat="44.82487" lon="2.0503">
        <ele>581.325805664</ele>
        <time>2015-09-24T09:21:36.397Z</time>
      </trkpt>
      <trkpt lat="44.82485" lon="2.05031">
        <ele>581.323242188</ele>
        <time>2015-09-24T09:21:36.461Z</time>
      </trkpt>
      <trkpt lat="44.82477" lon="2.05031">
        <ele>581.752929688</ele>
        <time>2015-09-24T09:21:43.671Z</time>
      </trkpt>
      <trkpt lat="44.82475" lon="2.05031">
        <ele>581.828796387</ele>
        <time>2015-09-24T09:21:44.549Z</time>
      </trkpt>
      <trkpt lat="44.82467" lon="2.05035">
        <ele>582.072692871</ele>
        <time>2015-09-24T09:21:53.666Z</time>
      </trkpt>
      <trkpt lat="44.82466" lon="2.05035">
        <ele>582.054992676</ele>
        <time>2015-09-24T09:21:54.56Z</time>
      </trkpt>
      <trkpt lat="44.82461" lon="2.05043">
        <ele>582.534301758</ele>
        <time>2015-09-24T09:22:03.663Z</time>
      </trkpt>
      <trkpt lat="44.82461" lon="2.05044">
        <ele>582.580078125</ele>
        <time>2015-09-24T09:22:04.566Z</time>
      </trkpt>
      <trkpt lat="44.82458" lon="2.05056">
        <ele>583.008666992</ele>
        <time>2015-09-24T09:22:11.603Z</time>
      </trkpt>
      <trkpt lat="44.82458" lon="2.05058">
        <ele>583.159423828</ele>
        <time>2015-09-24T09:22:12.545Z</time>
      </trkpt>
      <trkpt lat="44.82454" lon="2.05067">
        <ele>583.904418945</ele>
        <time>2015-09-24T09:22:21.663Z</time>
      </trkpt>
      <trkpt lat="44.82454" lon="2.05069">
        <ele>584.003173828</ele>
        <time>2015-09-24T09:22:22.555Z</time>
      </trkpt>
      <trkpt lat="44.82455" lon="2.05081">
        <ele>583.650512695</ele>
        <time>2015-09-24T09:22:34.673Z</time>
      </trkpt>
      <trkpt lat="44.82454" lon="2.05083">
        <ele>583.621276855</ele>
        <time>2015-09-24T09:22:35.534Z</time>
      </trkpt>
      <trkpt lat="44.82452" lon="2.05095">
        <ele>583.111633301</ele>
        <time>2015-09-24T09:22:45.702Z</time>
      </trkpt>
      <trkpt lat="44.82452" lon="2.05098">
        <ele>583.111328125</ele>
        <time>2015-09-24T09:22:46.559Z</time>
      </trkpt>
      <trkpt lat="44.82451" lon="2.05106">
        <ele>583.056152344</ele>
        <time>2015-09-24T09:22:51.871Z</time>
      </trkpt>
      <trkpt lat="44.8245" lon="2.05112">
        <ele>583.022583008</ele>
        <time>2015-09-24T09:22:52.494Z</time>
      </trkpt>
      <trkpt lat="44.82446" lon="2.05123">
        <ele>582.713500977</ele>
        <time>2015-09-24T09:22:57.801Z</time>
      </trkpt>
      <trkpt lat="44.82446" lon="2.05125">
        <ele>582.660949707</ele>
        <time>2015-09-24T09:22:58.548Z</time>
      </trkpt>
      <trkpt lat="44.82444" lon="2.05137">
        <ele>581.982421875</ele>
        <time>2015-09-24T09:23:07.738Z</time>
      </trkpt>
      <trkpt lat="44.82444" lon="2.05139">
        <ele>581.868591309</ele>
        <time>2015-09-24T09:23:08.584Z</time>
      </trkpt>
      <trkpt lat="44.82444" lon="2.05151">
        <ele>581.870788574</ele>
        <time>2015-09-24T09:23:16.693Z</time>
      </trkpt>
      <trkpt lat="44.82444" lon="2.05152">
        <ele>581.898376465</ele>
        <time>2015-09-24T09:23:17.564Z</time>
      </trkpt>
      <trkpt lat="44.82442" lon="2.05162">
        <ele>581.887329102</ele>
        <time>2015-09-24T09:23:22.665Z</time>
      </trkpt>
      <trkpt lat="44.82442" lon="2.05165">
        <ele>581.876098633</ele>
        <time>2015-09-24T09:23:23.548Z</time>
      </trkpt>
      <trkpt lat="44.8244" lon="2.05177">
        <ele>581.375183105</ele>
        <time>2015-09-24T09:23:31.679Z</time>
      </trkpt>
      <trkpt lat="44.8244" lon="2.05178">
        <ele>581.401916504</ele>
        <time>2015-09-24T09:23:32.596Z</time>
      </trkpt>
      <trkpt lat="44.82437" lon="2.05189">
        <ele>581.814697266</ele>
        <time>2015-09-24T09:23:40.603Z</time>
      </trkpt>
      <trkpt lat="44.82436" lon="2.0519">
        <ele>581.778686523</ele>
        <time>2015-09-24T09:23:41.532Z</time>
      </trkpt>
      <trkpt lat="44.82434" lon="2.05202">
        <ele>581.866455078</ele>
        <time>2015-09-24T09:23:49.599Z</time>
      </trkpt>
      <trkpt lat="44.82434" lon="2.05204">
        <ele>581.861877441</ele>
        <time>2015-09-24T09:23:50.536Z</time>
      </trkpt>
      <trkpt lat="44.82434" lon="2.05215">
        <ele>580.542236328</ele>
        <time>2015-09-24T09:24:05.603Z</time>
      </trkpt>
      <trkpt lat="44.82433" lon="2.05219">
        <ele>580.455383301</ele>
        <time>2015-09-24T09:24:06.533Z</time>
      </trkpt>
      <trkpt lat="44.82429" lon="2.0523">
        <ele>579.831298828</ele>
        <time>2015-09-24T09:24:11.605Z</time>
      </trkpt>
      <trkpt lat="44.82428" lon="2.05233">
        <ele>579.780944824</ele>
        <time>2015-09-24T09:24:12.552Z</time>
      </trkpt>
      <trkpt lat="44.82427" lon="2.05244">
        <ele>579.918823242</ele>
        <time>2015-09-24T09:24:17.609Z</time>
      </trkpt>
      <trkpt lat="44.82427" lon="2.05245">
        <ele>579.940368652</ele>
        <time>2015-09-24T09:24:18.64Z</time>
      </trkpt>
      <trkpt lat="44.82425" lon="2.05256">
        <ele>580.494567871</ele>
        <time>2015-09-24T09:24:26.6Z</time>
      </trkpt>
      <trkpt lat="44.82425" lon="2.05258">
        <ele>580.50579834</ele>
        <time>2015-09-24T09:24:27.535Z</time>
      </trkpt>
      <trkpt lat="44.82421" lon="2.05268">
        <ele>581.04675293</ele>
        <time>2015-09-24T09:24:39.033Z</time>
      </trkpt>
      <trkpt lat="44.8242" lon="2.05269">
        <ele>581.051818848</ele>
        <time>2015-09-24T09:24:39.451Z</time>
      </trkpt>
      <trkpt lat="44.82415" lon="2.0528">
        <ele>581.294006348</ele>
        <time>2015-09-24T09:24:52.943Z</time>
      </trkpt>
      <trkpt lat="44.82415" lon="2.05282">
        <ele>581.261779785</ele>
        <time>2015-09-24T09:24:53.5Z</time>
      </trkpt>
      <trkpt lat="44.82411" lon="2.05291">
        <ele>581.625244141</ele>
        <time>2015-09-24T09:24:58.826Z</time>
      </trkpt>
      <trkpt lat="44.8241" lon="2.05293">
        <ele>581.73425293</ele>
        <time>2015-09-24T09:24:59.552Z</time>
      </trkpt>
      <trkpt lat="44.82406" lon="2.05303">
        <ele>582.282897949</ele>
        <time>2015-09-24T09:25:06.644Z</time>
      </trkpt>
      <trkpt lat="44.82405" lon="2.05305">
        <ele>582.370544434</ele>
        <time>2015-09-24T09:25:07.606Z</time>
      </trkpt>
      <trkpt lat="44.82404" lon="2.05317">
        <ele>581.604919434</ele>
        <time>2015-09-24T09:25:34.661Z</time>
      </trkpt>
      <trkpt lat="44.82405" lon="2.05319">
        <ele>581.433959961</ele>
        <time>2015-09-24T09:25:35.556Z</time>
      </trkpt>
      <trkpt lat="44.82406" lon="2.05328">
        <ele>580.946899414</ele>
        <time>2015-09-24T09:25:39.658Z</time>
      </trkpt>
      <trkpt lat="44.82406" lon="2.05332">
        <ele>580.792602539</ele>
        <time>2015-09-24T09:25:40.552Z</time>
      </trkpt>
      <trkpt lat="44.82404" lon="2.05344">
        <ele>579.515869141</ele>
        <time>2015-09-24T09:25:53.628Z</time>
      </trkpt>
      <trkpt lat="44.82403" lon="2.05344">
        <ele>579.453918457</ele>
        <time>2015-09-24T09:25:54.628Z</time>
      </trkpt>
      <trkpt lat="44.824" lon="2.05354">
        <ele>578.965270996</ele>
        <time>2015-09-24T09:26:00.652Z</time>
      </trkpt>
      <trkpt lat="44.82399" lon="2.05358">
        <ele>578.832397461</ele>
        <time>2015-09-24T09:26:01.574Z</time>
      </trkpt>
      <trkpt lat="44.82399" lon="2.05367">
        <ele>578.153442383</ele>
        <time>2015-09-24T09:26:05.665Z</time>
      </trkpt>
      <trkpt lat="44.82399" lon="2.05371">
        <ele>578.046630859</ele>
        <time>2015-09-24T09:26:06.548Z</time>
      </trkpt>
      <trkpt lat="44.82394" lon="2.0538">
        <ele>577.803894043</ele>
        <time>2015-09-24T09:26:14.663Z</time>
      </trkpt>
      <trkpt lat="44.82393" lon="2.05381">
        <ele>577.819274902</ele>
        <time>2015-09-24T09:26:15.551Z</time>
      </trkpt>
      <trkpt lat="44.82392" lon="2.05393">
        <ele>577.91229248</ele>
        <time>2015-09-24T09:26:20.656Z</time>
      </trkpt>
      <trkpt lat="44.82391" lon="2.05395">
        <ele>577.937988281</ele>
        <time>2015-09-24T09:26:21.56Z</time>
      </trkpt>
      <trkpt lat="44.82391" lon="2.05406">
        <ele>578.263244629</ele>
        <time>2015-09-24T09:26:27.657Z</time>
      </trkpt>
      <trkpt lat="44.82391" lon="2.05408">
        <ele>578.353149414</ele>
        <time>2015-09-24T09:26:28.559Z</time>
      </trkpt>
      <trkpt lat="44.82394" lon="2.0542">
        <ele>579.38470459</ele>
        <time>2015-09-24T09:26:36.669Z</time>
      </trkpt>
      <trkpt lat="44.82394" lon="2.05421">
        <ele>579.588317871</ele>
        <time>2015-09-24T09:26:37.576Z</time>
      </trkpt>
      <trkpt lat="44.82399" lon="2.05431">
        <ele>580.464172363</ele>
        <time>2015-09-24T09:26:45.704Z</time>
      </trkpt>
      <trkpt lat="44.82399" lon="2.05432">
        <ele>580.51171875</ele>
        <time>2015-09-24T09:26:46.562Z</time>
      </trkpt>
      <trkpt lat="44.82398" lon="2.05445">
        <ele>580.985534668</ele>
        <time>2015-09-24T09:26:55.668Z</time>
      </trkpt>
      <trkpt lat="44.82397" lon="2.05446">
        <ele>581.009521484</ele>
        <time>2015-09-24T09:26:56.564Z</time>
      </trkpt>
      <trkpt lat="44.82393" lon="2.05454">
        <ele>580.756835938</ele>
        <time>2015-09-24T09:27:05.654Z</time>
      </trkpt>
      <trkpt lat="44.82391" lon="2.05456">
        <ele>580.787658691</ele>
        <time>2015-09-24T09:27:06.557Z</time>
      </trkpt>
      <trkpt lat="44.82384" lon="2.05464">
        <ele>581.177124023</ele>
        <time>2015-09-24T09:27:19.662Z</time>
      </trkpt>
      <trkpt lat="44.82383" lon="2.05464">
        <ele>581.208129883</ele>
        <time>2015-09-24T09:27:20.559Z</time>
      </trkpt>
      <trkpt lat="44.82374" lon="2.05462">
        <ele>580.915710449</ele>
        <time>2015-09-24T09:27:28.603Z</time>
      </trkpt>
      <trkpt lat="44.82373" lon="2.05463">
        <ele>580.830444336</ele>
        <time>2015-09-24T09:27:29.559Z</time>
      </trkpt>
      <trkpt lat="44.82365" lon="2.05461">
        <ele>580.846374512</ele>
        <time>2015-09-24T09:27:37.641Z</time>
      </trkpt>
      <trkpt lat="44.82364" lon="2.0546">
        <ele>580.83404541</ele>
        <time>2015-09-24T09:27:38.568Z</time>
      </trkpt>
      <trkpt lat="44.82356" lon="2.05464">
        <ele>580.004333496</ele>
        <time>2015-09-24T09:27:48.521Z</time>
      </trkpt>
      <trkpt lat="44.82355" lon="2.05465">
        <ele>579.907165527</ele>
        <time>2015-09-24T09:27:49.5Z</time>
      </trkpt>
      <trkpt lat="44.82347" lon="2.05471">
        <ele>579.72253418</ele>
        <time>2015-09-24T09:27:59.719Z</time>
      </trkpt>
      <trkpt lat="44.82346" lon="2.05472">
        <ele>579.684509277</ele>
        <time>2015-09-24T09:28:00.555Z</time>
      </trkpt>
      <trkpt lat="44.8234" lon="2.05478">
        <ele>579.511535645</ele>
        <time>2015-09-24T09:28:08.659Z</time>
      </trkpt>
      <trkpt lat="44.82338" lon="2.0548">
        <ele>579.487426758</ele>
        <time>2015-09-24T09:28:09.479Z</time>
      </trkpt>
      <trkpt lat="44.8233" lon="2.05484">
        <ele>579.511169434</ele>
        <time>2015-09-24T09:28:16.667Z</time>
      </trkpt>
      <trkpt lat="44.82329" lon="2.05485">
        <ele>579.488098145</ele>
        <time>2015-09-24T09:28:17.553Z</time>
      </trkpt>
      <trkpt lat="44.82322" lon="2.0549">
        <ele>579.298217773</ele>
        <time>2015-09-24T09:28:25.892Z</time>
      </trkpt>
      <trkpt lat="44.82321" lon="2.05491">
        <ele>579.310791016</ele>
        <time>2015-09-24T09:28:26.552Z</time>
      </trkpt>
      <trkpt lat="44.82313" lon="2.05494">
        <ele>579.475830078</ele>
        <time>2015-09-24T09:28:31.507Z</time>
      </trkpt>
      <trkpt lat="44.82312" lon="2.05495">
        <ele>579.435302734</ele>
        <time>2015-09-24T09:28:32.593Z</time>
      </trkpt>
      <trkpt lat="44.82304" lon="2.055">
        <ele>579.112609863</ele>
        <time>2015-09-24T09:28:42.601Z</time>
      </trkpt>
      <trkpt lat="44.82303" lon="2.05501">
        <ele>579.154174805</ele>
        <time>2015-09-24T09:28:43.536Z</time>
      </trkpt>
      <trkpt lat="44.82297" lon="2.05509">
        <ele>579.455688477</ele>
        <time>2015-09-24T09:28:50.604Z</time>
      </trkpt>
      <trkpt lat="44.82296" lon="2.0551">
        <ele>579.443725586</ele>
        <time>2015-09-24T09:28:51.535Z</time>
      </trkpt>
      <trkpt lat="44.8229" lon="2.05518">
        <ele>579.702514648</ele>
        <time>2015-09-24T09:29:01.748Z</time>
      </trkpt>
      <trkpt lat="44.82288" lon="2.0552">
        <ele>579.800476074</ele>
        <time>2015-09-24T09:29:02.565Z</time>
      </trkpt>
      <trkpt lat="44.82284" lon="2.05528">
        <ele>580.235046387</ele>
        <time>2015-09-24T09:29:08.673Z</time>
      </trkpt>
      <trkpt lat="44.82283" lon="2.05531">
        <ele>580.27166748</ele>
        <time>2015-09-24T09:29:09.565Z</time>
      </trkpt>
      <trkpt lat="44.82278" lon="2.0554">
        <ele>580.597839355</ele>
        <time>2015-09-24T09:29:19.836Z</time>
      </trkpt>
      <trkpt lat="44.82278" lon="2.0554">
        <ele>580.651123047</ele>
        <time>2015-09-24T09:29:20.562Z</time>
      </trkpt>
      <trkpt lat="44.82272" lon="2.0555">
        <ele>580.652526855</ele>
        <time>2015-09-24T09:29:44.665Z</time>
      </trkpt>
      <trkpt lat="44.82271" lon="2.05551">
        <ele>580.692687988</ele>
        <time>2015-09-24T09:29:45.564Z</time>
      </trkpt>
      <trkpt lat="44.82264" lon="2.05557">
        <ele>580.563537598</ele>
        <time>2015-09-24T09:29:52.653Z</time>
      </trkpt>
      <trkpt lat="44.82263" lon="2.05558">
        <ele>580.705322266</ele>
        <time>2015-09-24T09:29:53.554Z</time>
      </trkpt>
      <trkpt lat="44.82256" lon="2.05564">
        <ele>580.636230469</ele>
        <time>2015-09-24T09:30:03.483Z</time>
      </trkpt>
      <trkpt lat="44.82255" lon="2.05566">
        <ele>580.714233398</ele>
        <time>2015-09-24T09:30:04.598Z</time>
      </trkpt>
      <trkpt lat="44.82247" lon="2.05572">
        <ele>581.407165527</ele>
        <time>2015-09-24T09:30:12.664Z</time>
      </trkpt>
      <trkpt lat="44.82246" lon="2.05573">
        <ele>581.479248047</ele>
        <time>2015-09-24T09:30:13.557Z</time>
      </trkpt>
      <trkpt lat="44.82239" lon="2.05578">
        <ele>581.400024414</ele>
        <time>2015-09-24T09:30:23.66Z</time>
      </trkpt>
      <trkpt lat="44.82238" lon="2.05579">
        <ele>581.480529785</ele>
        <time>2015-09-24T09:30:24.564Z</time>
      </trkpt>
      <trkpt lat="44.82231" lon="2.05585">
        <ele>581.946411133</ele>
        <time>2015-09-24T09:30:33.665Z</time>
      </trkpt>
      <trkpt lat="44.8223" lon="2.05586">
        <ele>581.981872559</ele>
        <time>2015-09-24T09:30:34.555Z</time>
      </trkpt>
      <trkpt lat="44.82225" lon="2.05595">
        <ele>581.572814941</ele>
        <time>2015-09-24T09:30:43.667Z</time>
      </trkpt>
      <trkpt lat="44.82224" lon="2.05596">
        <ele>581.571411133</ele>
        <time>2015-09-24T09:30:44.582Z</time>
      </trkpt>
      <trkpt lat="44.82219" lon="2.05606">
        <ele>584.052490234</ele>
        <time>2015-09-24T09:31:18.656Z</time>
      </trkpt>
      <trkpt lat="44.82219" lon="2.05607">
        <ele>584.01361084</ele>
        <time>2015-09-24T09:31:19.547Z</time>
      </trkpt>
      <trkpt lat="44.82219" lon="2.05618">
        <ele>583.408508301</ele>
        <time>2015-09-24T09:31:37.654Z</time>
      </trkpt>
      <trkpt lat="44.82219" lon="2.05619">
        <ele>583.377624512</ele>
        <time>2015-09-24T09:31:39.399Z</time>
      </trkpt>
      <trkpt lat="44.82218" lon="2.05631">
        <ele>582.791992188</ele>
        <time>2015-09-24T09:31:46.67Z</time>
      </trkpt>
      <trkpt lat="44.82217" lon="2.05632">
        <ele>582.723754883</ele>
        <time>2015-09-24T09:31:47.54Z</time>
      </trkpt>
      <trkpt lat="44.82214" lon="2.05642">
        <ele>582.175598145</ele>
        <time>2015-09-24T09:31:56.696Z</time>
      </trkpt>
      <trkpt lat="44.82213" lon="2.05644">
        <ele>582.137451172</ele>
        <time>2015-09-24T09:31:57.611Z</time>
      </trkpt>
      <trkpt lat="44.82212" lon="2.05655">
        <ele>581.852600098</ele>
        <time>2015-09-24T09:32:03.654Z</time>
      </trkpt>
      <trkpt lat="44.82212" lon="2.05657">
        <ele>581.823669434</ele>
        <time>2015-09-24T09:32:04.56Z</time>
      </trkpt>
      <trkpt lat="44.82212" lon="2.05669">
        <ele>581.312011719</ele>
        <time>2015-09-24T09:32:15.671Z</time>
      </trkpt>
      <trkpt lat="44.82213" lon="2.0567">
        <ele>581.278259277</ele>
        <time>2015-09-24T09:32:16.586Z</time>
      </trkpt>
      <trkpt lat="44.82211" lon="2.05682">
        <ele>581.695983887</ele>
        <time>2015-09-24T09:32:34.691Z</time>
      </trkpt>
      <trkpt lat="44.82211" lon="2.05684">
        <ele>581.67388916</ele>
        <time>2015-09-24T09:32:35.563Z</time>
      </trkpt>
      <trkpt lat="44.82211" lon="2.05695">
        <ele>581.652587891</ele>
        <time>2015-09-24T09:32:42.605Z</time>
      </trkpt>
      <trkpt lat="44.82211" lon="2.05697">
        <ele>581.622802734</ele>
        <time>2015-09-24T09:32:43.537Z</time>
      </trkpt>
      <trkpt lat="44.82218" lon="2.05691">
        <ele>579.621459961</ele>
        <time>2015-09-24T09:33:22.659Z</time>
      </trkpt>
      <trkpt lat="44.82219" lon="2.05691">
        <ele>579.604736328</ele>
        <time>2015-09-24T09:33:23.551Z</time>
      </trkpt>
      <trkpt lat="44.82212" lon="2.05696">
        <ele>577.798156738</ele>
        <time>2015-09-24T09:33:58.671Z</time>
      </trkpt>
      <trkpt lat="44.82211" lon="2.05697">
        <ele>577.91583252</ele>
        <time>2015-09-24T09:33:59.546Z</time>
      </trkpt>
      <trkpt lat="44.82206" lon="2.05707">
        <ele>578.768310547</ele>
        <time>2015-09-24T09:34:07.81Z</time>
      </trkpt>
      <trkpt lat="44.82205" lon="2.05708">
        <ele>578.872253418</ele>
        <time>2015-09-24T09:34:08.588Z</time>
      </trkpt>
      <trkpt lat="44.82201" lon="2.05719">
        <ele>579.495117188</ele>
        <time>2015-09-24T09:34:22.665Z</time>
      </trkpt>
      <trkpt lat="44.82201" lon="2.0572">
        <ele>579.647705078</ele>
        <time>2015-09-24T09:34:23.539Z</time>
      </trkpt>
      <trkpt lat="44.82208" lon="2.05727">
        <ele>581.674438477</ele>
        <time>2015-09-24T09:39:07.639Z</time>
      </trkpt>
      <trkpt lat="44.82208" lon="2.05728">
        <ele>581.661865234</ele>
        <time>2015-09-24T09:39:08.543Z</time>
      </trkpt>
      <trkpt lat="44.82204" lon="2.05739">
        <ele>581.56463623</ele>
        <time>2015-09-24T09:39:51.655Z</time>
      </trkpt>
      <trkpt lat="44.82204" lon="2.0574">
        <ele>581.64263916</ele>
        <time>2015-09-24T09:39:52.562Z</time>
      </trkpt>
      <trkpt lat="44.82201" lon="2.05751">
        <ele>581.859191895</ele>
        <time>2015-09-24T09:40:03.677Z</time>
      </trkpt>
      <trkpt lat="44.82201" lon="2.05752">
        <ele>581.885559082</ele>
        <time>2015-09-24T09:40:04.551Z</time>
      </trkpt>
      <trkpt lat="44.82197" lon="2.05763">
        <ele>581.137756348</ele>
        <time>2015-09-24T09:40:24.712Z</time>
      </trkpt>
      <trkpt lat="44.82196" lon="2.05764">
        <ele>580.976806641</ele>
        <time>2015-09-24T09:40:25.566Z</time>
      </trkpt>
      <trkpt lat="44.82191" lon="2.05773">
        <ele>580.396789551</ele>
        <time>2015-09-24T09:40:43.733Z</time>
      </trkpt>
      <trkpt lat="44.8219" lon="2.05775">
        <ele>580.336975098</ele>
        <time>2015-09-24T09:40:44.565Z</time>
      </trkpt>
      <trkpt lat="44.82182" lon="2.05781">
        <ele>579.9609375</ele>
        <time>2015-09-24T09:40:51.61Z</time>
      </trkpt>
      <trkpt lat="44.82182" lon="2.05781">
        <ele>579.953308105</ele>
        <time>2015-09-24T09:40:52.541Z</time>
      </trkpt>
      <trkpt lat="44.82177" lon="2.05791">
        <ele>579.525146484</ele>
        <time>2015-09-24T09:41:05.708Z</time>
      </trkpt>
      <trkpt lat="44.82176" lon="2.05792">
        <ele>579.548217773</ele>
        <time>2015-09-24T09:41:06.497Z</time>
      </trkpt>
      <trkpt lat="44.82167" lon="2.05789">
        <ele>579.863037109</ele>
        <time>2015-09-24T09:41:15.677Z</time>
      </trkpt>
      <trkpt lat="44.82166" lon="2.05789">
        <ele>579.959533691</ele>
        <time>2015-09-24T09:41:16.471Z</time>
      </trkpt>
      <trkpt lat="44.82158" lon="2.05787">
        <ele>580.49029541</ele>
        <time>2015-09-24T09:41:24.722Z</time>
      </trkpt>
      <trkpt lat="44.82157" lon="2.05787">
        <ele>580.538085938</ele>
        <time>2015-09-24T09:41:25.571Z</time>
      </trkpt>
      <trkpt lat="44.8215" lon="2.05781">
        <ele>581.070983887</ele>
        <time>2015-09-24T09:41:37.709Z</time>
      </trkpt>
      <trkpt lat="44.82148" lon="2.05781">
        <ele>581.073059082</ele>
        <time>2015-09-24T09:41:38.504Z</time>
      </trkpt>
      <trkpt lat="44.8214" lon="2.05776">
        <ele>581.121154785</ele>
        <time>2015-09-24T09:41:48.679Z</time>
      </trkpt>
      <trkpt lat="44.82139" lon="2.05777">
        <ele>581.132751465</ele>
        <time>2015-09-24T09:41:49.599Z</time>
      </trkpt>
      <trkpt lat="44.82132" lon="2.05773">
        <ele>581.51373291</ele>
        <time>2015-09-24T09:41:55.666Z</time>
      </trkpt>
      <trkpt lat="44.8213" lon="2.05773">
        <ele>581.628845215</ele>
        <time>2015-09-24T09:41:56.546Z</time>
      </trkpt>
      <trkpt lat="44.82124" lon="2.05765">
        <ele>581.897949219</ele>
        <time>2015-09-24T09:42:07.766Z</time>
      </trkpt>
      <trkpt lat="44.82124" lon="2.05763">
        <ele>581.919677734</ele>
        <time>2015-09-24T09:42:08.568Z</time>
      </trkpt>
      <trkpt lat="44.82122" lon="2.05751">
        <ele>582.459411621</ele>
        <time>2015-09-24T09:42:28.643Z</time>
      </trkpt>
      <trkpt lat="44.82121" lon="2.05751">
        <ele>582.507080078</ele>
        <time>2015-09-24T09:42:29.544Z</time>
      </trkpt>
      <trkpt lat="44.82124" lon="2.05739">
        <ele>581.581054688</ele>
        <time>2015-09-24T09:43:07.762Z</time>
      </trkpt>
      <trkpt lat="44.82124" lon="2.05739">
        <ele>581.570800781</ele>
        <time>2015-09-24T09:43:08.55Z</time>
      </trkpt>
      <trkpt lat="44.82117" lon="2.05732">
        <ele>579.668151855</ele>
        <time>2015-09-24T09:43:31.688Z</time>
      </trkpt>
      <trkpt lat="44.82116" lon="2.05732">
        <ele>579.52734375</ele>
        <time>2015-09-24T09:43:32.574Z</time>
      </trkpt>
      <trkpt lat="44.82109" lon="2.05726">
        <ele>578.846679688</ele>
        <time>2015-09-24T09:43:40.018Z</time>
      </trkpt>
      <trkpt lat="44.82108" lon="2.05724">
        <ele>578.74029541</ele>
        <time>2015-09-24T09:43:40.558Z</time>
      </trkpt>
      <trkpt lat="44.82102" lon="2.05716">
        <ele>578.734558105</ele>
        <time>2015-09-24T09:43:48.671Z</time>
      </trkpt>
      <trkpt lat="44.82102" lon="2.05715">
        <ele>578.799377441</ele>
        <time>2015-09-24T09:43:49.551Z</time>
      </trkpt>
      <trkpt lat="44.82099" lon="2.05703">
        <ele>578.579772949</ele>
        <time>2015-09-24T09:43:57.679Z</time>
      </trkpt>
      <trkpt lat="44.82098" lon="2.05703">
        <ele>578.513366699</ele>
        <time>2015-09-24T09:43:58.593Z</time>
      </trkpt>
      <trkpt lat="44.82096" lon="2.05691">
        <ele>578.134033203</ele>
        <time>2015-09-24T09:44:04.67Z</time>
      </trkpt>
      <trkpt lat="44.82096" lon="2.05689">
        <ele>578.017272949</ele>
        <time>2015-09-24T09:44:05.547Z</time>
      </trkpt>
      <trkpt lat="44.82098" lon="2.05677">
        <ele>578.063476562</ele>
        <time>2015-09-24T09:44:12.49Z</time>
      </trkpt>
      <trkpt lat="44.82098" lon="2.05676">
        <ele>578.073547363</ele>
        <time>2015-09-24T09:44:13.616Z</time>
      </trkpt>
      <trkpt lat="44.82099" lon="2.05664">
        <ele>578.731140137</ele>
        <time>2015-09-24T09:44:21.777Z</time>
      </trkpt>
      <trkpt lat="44.82099" lon="2.05663">
        <ele>578.808288574</ele>
        <time>2015-09-24T09:44:22.498Z</time>
      </trkpt>
      <trkpt lat="44.82099" lon="2.05651">
        <ele>579.56463623</ele>
        <time>2015-09-24T09:44:31.621Z</time>
      </trkpt>
      <trkpt lat="44.82099" lon="2.0565">
        <ele>579.653625488</ele>
        <time>2015-09-24T09:44:32.541Z</time>
      </trkpt>
      <trkpt lat="44.821" lon="2.05638">
        <ele>580.125427246</ele>
        <time>2015-09-24T09:44:39.666Z</time>
      </trkpt>
      <trkpt lat="44.821" lon="2.05637">
        <ele>580.11126709</ele>
        <time>2015-09-24T09:44:40.57Z</time>
      </trkpt>
      <trkpt lat="44.82101" lon="2.05624">
        <ele>580.437683105</ele>
        <time>2015-09-24T09:44:48.605Z</time>
      </trkpt>
      <trkpt lat="44.82101" lon="2.05623">
        <ele>580.386108398</ele>
        <time>2015-09-24T09:44:49.558Z</time>
      </trkpt>
      <trkpt lat="44.82103" lon="2.05611">
        <ele>580.156555176</ele>
        <time>2015-09-24T09:44:58.719Z</time>
      </trkpt>
      <trkpt lat="44.82103" lon="2.05609">
        <ele>580.104003906</ele>
        <time>2015-09-24T09:44:59.548Z</time>
      </trkpt>
      <trkpt lat="44.82106" lon="2.05598">
        <ele>580.332214355</ele>
        <time>2015-09-24T09:45:07.778Z</time>
      </trkpt>
      <trkpt lat="44.82106" lon="2.05596">
        <ele>580.345336914</ele>
        <time>2015-09-24T09:45:08.567Z</time>
      </trkpt>
      <trkpt lat="44.82104" lon="2.05584">
        <ele>580.641601562</ele>
        <time>2015-09-24T09:45:16.689Z</time>
      </trkpt>
      <trkpt lat="44.82104" lon="2.05583">
        <ele>580.673278809</ele>
        <time>2015-09-24T09:45:17.628Z</time>
      </trkpt>
      <trkpt lat="44.82101" lon="2.05572">
        <ele>580.651977539</ele>
        <time>2015-09-24T09:45:23.657Z</time>
      </trkpt>
      <trkpt lat="44.82101" lon="2.0557">
        <ele>580.616149902</ele>
        <time>2015-09-24T09:45:24.583Z</time>
      </trkpt>
      <trkpt lat="44.82095" lon="2.05561">
        <ele>580.072265625</ele>
        <time>2015-09-24T09:45:34.674Z</time>
      </trkpt>
      <trkpt lat="44.82094" lon="2.0556">
        <ele>580.062255859</ele>
        <time>2015-09-24T09:45:35.618Z</time>
      </trkpt>
      <trkpt lat="44.82091" lon="2.05549">
        <ele>579.682312012</ele>
        <time>2015-09-24T09:45:45.662Z</time>
      </trkpt>
      <trkpt lat="44.8209" lon="2.05547">
        <ele>579.680969238</ele>
        <time>2015-09-24T09:45:46.56Z</time>
      </trkpt>
      <trkpt lat="44.82087" lon="2.05536">
        <ele>579.245361328</ele>
        <time>2015-09-24T09:45:56.054Z</time>
      </trkpt>
      <trkpt lat="44.82086" lon="2.05535">
        <ele>579.176330566</ele>
        <time>2015-09-24T09:45:56.67Z</time>
      </trkpt>
      <trkpt lat="44.8208" lon="2.05525">
        <ele>578.934204102</ele>
        <time>2015-09-24T09:46:05.69Z</time>
      </trkpt>
      <trkpt lat="44.8208" lon="2.05524">
        <ele>579.021057129</ele>
        <time>2015-09-24T09:46:06.555Z</time>
      </trkpt>
      <trkpt lat="44.82078" lon="2.05512">
        <ele>579.260620117</ele>
        <time>2015-09-24T09:46:15.501Z</time>
      </trkpt>
      <trkpt lat="44.82077" lon="2.0551">
        <ele>579.298156738</ele>
        <time>2015-09-24T09:46:16.565Z</time>
      </trkpt>
      <trkpt lat="44.82077" lon="2.05498">
        <ele>579.921875</ele>
        <time>2015-09-24T09:46:27.662Z</time>
      </trkpt>
      <trkpt lat="44.82077" lon="2.05496">
        <ele>579.998901367</ele>
        <time>2015-09-24T09:46:28.554Z</time>
      </trkpt>
      <trkpt lat="44.82076" lon="2.05485">
        <ele>580.531921387</ele>
        <time>2015-09-24T09:46:35.678Z</time>
      </trkpt>
      <trkpt lat="44.82076" lon="2.05484">
        <ele>580.576965332</ele>
        <time>2015-09-24T09:46:36.583Z</time>
      </trkpt>
      <trkpt lat="44.82076" lon="2.05472">
        <ele>581.332641602</ele>
        <time>2015-09-24T09:46:45.689Z</time>
      </trkpt>
      <trkpt lat="44.82077" lon="2.0547">
        <ele>581.369140625</ele>
        <time>2015-09-24T09:46:46.556Z</time>
      </trkpt>
      <trkpt lat="44.82082" lon="2.0546">
        <ele>581.624145508</ele>
        <time>2015-09-24T09:46:55.666Z</time>
      </trkpt>
      <trkpt lat="44.82082" lon="2.05459">
        <ele>581.683532715</ele>
        <time>2015-09-24T09:46:56.541Z</time>
      </trkpt>
      <trkpt lat="44.82087" lon="2.05449">
        <ele>582.079040527</ele>
        <time>2015-09-24T09:47:05.674Z</time>
      </trkpt>
      <trkpt lat="44.82087" lon="2.05448">
        <ele>582.143371582</ele>
        <time>2015-09-24T09:47:06.55Z</time>
      </trkpt>
      <trkpt lat="44.82092" lon="2.05438">
        <ele>582.151123047</ele>
        <time>2015-09-24T09:47:16.648Z</time>
      </trkpt>
      <trkpt lat="44.82093" lon="2.05436">
        <ele>582.111022949</ele>
        <time>2015-09-24T09:47:17.553Z</time>
      </trkpt>
      <trkpt lat="44.82099" lon="2.05427">
        <ele>582.072937012</ele>
        <time>2015-09-24T09:47:25.664Z</time>
      </trkpt>
      <trkpt lat="44.82099" lon="2.05426">
        <ele>582.062194824</ele>
        <time>2015-09-24T09:47:26.565Z</time>
      </trkpt>
      <trkpt lat="44.82103" lon="2.05416">
        <ele>582.049804688</ele>
        <time>2015-09-24T09:47:34.662Z</time>
      </trkpt>
      <trkpt lat="44.82104" lon="2.05414">
        <ele>582.117492676</ele>
        <time>2015-09-24T09:47:35.635Z</time>
      </trkpt>
      <trkpt lat="44.82106" lon="2.05402">
        <ele>582.09753418</ele>
        <time>2015-09-24T09:47:45.66Z</time>
      </trkpt>
      <trkpt lat="44.82107" lon="2.05401">
        <ele>582.14831543</ele>
        <time>2015-09-24T09:47:46.576Z</time>
      </trkpt>
      <trkpt lat="44.82111" lon="2.05391">
        <ele>582.288269043</ele>
        <time>2015-09-24T09:47:54.655Z</time>
      </trkpt>
      <trkpt lat="44.82111" lon="2.0539">
        <ele>582.313232422</ele>
        <time>2015-09-24T09:47:55.559Z</time>
      </trkpt>
      <trkpt lat="44.82112" lon="2.05377">
        <ele>582.27923584</ele>
        <time>2015-09-24T09:48:03.684Z</time>
      </trkpt>
      <trkpt lat="44.82112" lon="2.05376">
        <ele>582.291137695</ele>
        <time>2015-09-24T09:48:04.594Z</time>
      </trkpt>
      <trkpt lat="44.82115" lon="2.05364">
        <ele>582.364624023</ele>
        <time>2015-09-24T09:48:13.713Z</time>
      </trkpt>
      <trkpt lat="44.82115" lon="2.05363">
        <ele>582.329833984</ele>
        <time>2015-09-24T09:48:14.547Z</time>
      </trkpt>
      <trkpt lat="44.82121" lon="2.05356">
        <ele>582.595703125</ele>
        <time>2015-09-24T09:48:20.666Z</time>
      </trkpt>
      <trkpt lat="44.82123" lon="2.05355">
        <ele>582.614196777</ele>
        <time>2015-09-24T09:48:21.561Z</time>
      </trkpt>
      <trkpt lat="44.82128" lon="2.05345">
        <ele>582.852600098</ele>
        <time>2015-09-24T09:48:31.66Z</time>
      </trkpt>
      <trkpt lat="44.82129" lon="2.05343">
        <ele>582.865661621</ele>
        <time>2015-09-24T09:48:32.557Z</time>
      </trkpt>
      <trkpt lat="44.82132" lon="2.05332">
        <ele>582.968444824</ele>
        <time>2015-09-24T09:48:40.653Z</time>
      </trkpt>
      <trkpt lat="44.82132" lon="2.05331">
        <ele>582.997802734</ele>
        <time>2015-09-24T09:48:41.556Z</time>
      </trkpt>
      <trkpt lat="44.82137" lon="2.0532">
        <ele>583.519348145</ele>
        <time>2015-09-24T09:48:48.64Z</time>
      </trkpt>
      <trkpt lat="44.82138" lon="2.05319">
        <ele>583.550231934</ele>
        <time>2015-09-24T09:48:49.532Z</time>
      </trkpt>
      <trkpt lat="44.82145" lon="2.05315">
        <ele>584.483703613</ele>
        <time>2015-09-24T09:48:59.582Z</time>
      </trkpt>
      <trkpt lat="44.82146" lon="2.05314">
        <ele>584.533996582</ele>
        <time>2015-09-24T09:49:00.547Z</time>
      </trkpt>
      <trkpt lat="44.82155" lon="2.05314">
        <ele>584.437011719</ele>
        <time>2015-09-24T09:49:15.684Z</time>
      </trkpt>
      <trkpt lat="44.82156" lon="2.05314">
        <ele>584.494812012</ele>
        <time>2015-09-24T09:49:16.558Z</time>
      </trkpt>
      <trkpt lat="44.82164" lon="2.0531">
        <ele>585.110229492</ele>
        <time>2015-09-24T09:49:26.656Z</time>
      </trkpt>
      <trkpt lat="44.82165" lon="2.05309">
        <ele>585.222717285</ele>
        <time>2015-09-24T09:49:27.558Z</time>
      </trkpt>
      <trkpt lat="44.82173" lon="2.05302">
        <ele>585.877929688</ele>
        <time>2015-09-24T09:49:37.647Z</time>
      </trkpt>
      <trkpt lat="44.82173" lon="2.05302">
        <ele>585.874328613</ele>
        <time>2015-09-24T09:49:38.559Z</time>
      </trkpt>
      <trkpt lat="44.82181" lon="2.05299">
        <ele>585.954162598</ele>
        <time>2015-09-24T09:49:45.664Z</time>
      </trkpt>
      <trkpt lat="44.82182" lon="2.05299">
        <ele>585.985778809</ele>
        <time>2015-09-24T09:49:46.639Z</time>
      </trkpt>
      <trkpt lat="44.8219" lon="2.05295">
        <ele>585.91418457</ele>
        <time>2015-09-24T09:49:53.659Z</time>
      </trkpt>
      <trkpt lat="44.82191" lon="2.05294">
        <ele>585.89074707</ele>
        <time>2015-09-24T09:49:54.586Z</time>
      </trkpt>
      <trkpt lat="44.82198" lon="2.05288">
        <ele>585.927368164</ele>
        <time>2015-09-24T09:50:01.748Z</time>
      </trkpt>
      <trkpt lat="44.822" lon="2.05287">
        <ele>585.929016113</ele>
        <time>2015-09-24T09:50:02.571Z</time>
      </trkpt>
      <trkpt lat="44.82207" lon="2.05281">
        <ele>585.794677734</ele>
        <time>2015-09-24T09:50:10.671Z</time>
      </trkpt>
      <trkpt lat="44.82208" lon="2.05279">
        <ele>585.692932129</ele>
        <time>2015-09-24T09:50:11.552Z</time>
      </trkpt>
      <trkpt lat="44.82214" lon="2.05269">
        <ele>585.516052246</ele>
        <time>2015-09-24T09:50:20.658Z</time>
      </trkpt>
      <trkpt lat="44.82214" lon="2.05269">
        <ele>585.520690918</ele>
        <time>2015-09-24T09:50:21.583Z</time>
      </trkpt>
      <trkpt lat="44.82217" lon="2.05258">
        <ele>585.587768555</ele>
        <time>2015-09-24T09:50:29.862Z</time>
      </trkpt>
      <trkpt lat="44.82218" lon="2.05257">
        <ele>585.645507812</ele>
        <time>2015-09-24T09:50:30.564Z</time>
      </trkpt>
      <trkpt lat="44.82223" lon="2.05247">
        <ele>585.767456055</ele>
        <time>2015-09-24T09:50:37.734Z</time>
      </trkpt>
      <trkpt lat="44.82223" lon="2.05245">
        <ele>585.727172852</ele>
        <time>2015-09-24T09:50:38.927Z</time>
      </trkpt>
      <trkpt lat="44.82227" lon="2.05235">
        <ele>586.238891602</ele>
        <time>2015-09-24T09:50:47.666Z</time>
      </trkpt>
      <trkpt lat="44.82227" lon="2.05233">
        <ele>586.283203125</ele>
        <time>2015-09-24T09:50:48.562Z</time>
      </trkpt>
      <trkpt lat="44.82234" lon="2.05225">
        <ele>586.542419434</ele>
        <time>2015-09-24T09:50:56.665Z</time>
      </trkpt>
      <trkpt lat="44.82234" lon="2.05224">
        <ele>586.595703125</ele>
        <time>2015-09-24T09:50:57.567Z</time>
      </trkpt>
      <trkpt lat="44.82239" lon="2.05214">
        <ele>586.411560059</ele>
        <time>2015-09-24T09:51:05.685Z</time>
      </trkpt>
      <trkpt lat="44.8224" lon="2.05213">
        <ele>586.490905762</ele>
        <time>2015-09-24T09:51:06.556Z</time>
      </trkpt>
      <trkpt lat="44.82244" lon="2.05203">
        <ele>586.864013672</ele>
        <time>2015-09-24T09:51:14.785Z</time>
      </trkpt>
      <trkpt lat="44.82245" lon="2.05202">
        <ele>586.850769043</ele>
        <time>2015-09-24T09:51:15.561Z</time>
      </trkpt>
      <trkpt lat="44.82251" lon="2.05193">
        <ele>586.573303223</ele>
        <time>2015-09-24T09:51:24.667Z</time>
      </trkpt>
      <trkpt lat="44.82253" lon="2.05191">
        <ele>586.507507324</ele>
        <time>2015-09-24T09:51:25.559Z</time>
      </trkpt>
      <trkpt lat="44.82257" lon="2.05183">
        <ele>586.28729248</ele>
        <time>2015-09-24T09:51:31.571Z</time>
      </trkpt>
      <trkpt lat="44.82258" lon="2.0518">
        <ele>586.237854004</ele>
        <time>2015-09-24T09:51:32.458Z</time>
      </trkpt>
      <trkpt lat="44.82261" lon="2.05168">
        <ele>586.123168945</ele>
        <time>2015-09-24T09:51:42.595Z</time>
      </trkpt>
      <trkpt lat="44.82262" lon="2.05167">
        <ele>586.086608887</ele>
        <time>2015-09-24T09:51:43.548Z</time>
      </trkpt>
      <trkpt lat="44.82264" lon="2.05155">
        <ele>585.505310059</ele>
        <time>2015-09-24T09:51:51.838Z</time>
      </trkpt>
      <trkpt lat="44.82265" lon="2.05154">
        <ele>585.448242188</ele>
        <time>2015-09-24T09:51:52.557Z</time>
      </trkpt>
      <trkpt lat="44.82268" lon="2.05143">
        <ele>585.195861816</ele>
        <time>2015-09-24T09:52:00.662Z</time>
      </trkpt>
      <trkpt lat="44.82269" lon="2.05142">
        <ele>585.159973145</ele>
        <time>2015-09-24T09:52:01.59Z</time>
      </trkpt>
      <trkpt lat="44.82272" lon="2.0513">
        <ele>584.10723877</ele>
        <time>2015-09-24T09:52:10.658Z</time>
      </trkpt>
      <trkpt lat="44.82272" lon="2.05129">
        <ele>584.018005371</ele>
        <time>2015-09-24T09:52:11.547Z</time>
      </trkpt>
      <trkpt lat="44.82271" lon="2.05117">
        <ele>583.272705078</ele>
        <time>2015-09-24T09:52:20.677Z</time>
      </trkpt>
      <trkpt lat="44.82271" lon="2.05115">
        <ele>583.171264648</ele>
        <time>2015-09-24T09:52:21.559Z</time>
      </trkpt>
      <trkpt lat="44.8227" lon="2.05104">
        <ele>582.719543457</ele>
        <time>2015-09-24T09:52:28.687Z</time>
      </trkpt>
      <trkpt lat="44.82271" lon="2.05102">
        <ele>582.69317627</ele>
        <time>2015-09-24T09:52:29.567Z</time>
      </trkpt>
      <trkpt lat="44.82272" lon="2.05091">
        <ele>582.805114746</ele>
        <time>2015-09-24T09:52:36.677Z</time>
      </trkpt>
      <trkpt lat="44.82272" lon="2.05089">
        <ele>582.770019531</ele>
        <time>2015-09-24T09:52:37.547Z</time>
      </trkpt>
      <trkpt lat="44.82274" lon="2.05078">
        <ele>582.698974609</ele>
        <time>2015-09-24T09:52:45.668Z</time>
      </trkpt>
      <trkpt lat="44.82274" lon="2.05076">
        <ele>582.650024414</ele>
        <time>2015-09-24T09:52:46.536Z</time>
      </trkpt>
      <trkpt lat="44.82274" lon="2.05063">
        <ele>582.241455078</ele>
        <time>2015-09-24T09:52:54.647Z</time>
      </trkpt>
      <trkpt lat="44.82273" lon="2.05062">
        <ele>582.218139648</ele>
        <time>2015-09-24T09:52:55.531Z</time>
      </trkpt>
      <trkpt lat="44.82275" lon="2.05051">
        <ele>581.295959473</ele>
        <time>2015-09-24T09:53:05.618Z</time>
      </trkpt>
      <trkpt lat="44.82276" lon="2.0505">
        <ele>581.209655762</ele>
        <time>2015-09-24T09:53:06.539Z</time>
      </trkpt>
      <trkpt lat="44.82277" lon="2.05038">
        <ele>581.231872559</ele>
        <time>2015-09-24T09:53:15.671Z</time>
      </trkpt>
      <trkpt lat="44.82277" lon="2.05037">
        <ele>581.214050293</ele>
        <time>2015-09-24T09:53:16.555Z</time>
      </trkpt>
      <trkpt lat="44.82282" lon="2.05027">
        <ele>580.791687012</ele>
        <time>2015-09-24T09:53:22.738Z</time>
      </trkpt>
      <trkpt lat="44.82282" lon="2.05026">
        <ele>580.755737305</ele>
        <time>2015-09-24T09:53:23.563Z</time>
      </trkpt>
      <trkpt lat="44.82286" lon="2.05015">
        <ele>580.833496094</ele>
        <time>2015-09-24T09:53:31.666Z</time>
      </trkpt>
      <trkpt lat="44.82286" lon="2.05014">
        <ele>580.825195312</ele>
        <time>2015-09-24T09:53:32.557Z</time>
      </trkpt>
      <trkpt lat="44.8229" lon="2.05003">
        <ele>581.082641602</ele>
        <time>2015-09-24T09:53:39.657Z</time>
      </trkpt>
      <trkpt lat="44.82291" lon="2.05002">
        <ele>581.145263672</ele>
        <time>2015-09-24T09:53:41.013Z</time>
      </trkpt>
      <trkpt lat="44.82294" lon="2.04991">
        <ele>581.768371582</ele>
        <time>2015-09-24T09:53:49.669Z</time>
      </trkpt>
      <trkpt lat="44.82295" lon="2.0499">
        <ele>581.81628418</ele>
        <time>2015-09-24T09:53:50.699Z</time>
      </trkpt>
      <trkpt lat="44.82297" lon="2.04978">
        <ele>581.828979492</ele>
        <time>2015-09-24T09:53:59.656Z</time>
      </trkpt>
      <trkpt lat="44.82298" lon="2.04977">
        <ele>581.769897461</ele>
        <time>2015-09-24T09:54:00.555Z</time>
      </trkpt>
      <trkpt lat="44.82299" lon="2.04965">
        <ele>581.480102539</ele>
        <time>2015-09-24T09:54:09.656Z</time>
      </trkpt>
      <trkpt lat="44.823" lon="2.04963">
        <ele>581.40435791</ele>
        <time>2015-09-24T09:54:10.551Z</time>
      </trkpt>
      <trkpt lat="44.823" lon="2.04951">
        <ele>583.091308594</ele>
        <time>2015-09-24T09:54:52.66Z</time>
      </trkpt>
      <trkpt lat="44.823" lon="2.04948">
        <ele>583.021789551</ele>
        <time>2015-09-24T09:54:53.564Z</time>
      </trkpt>
      <trkpt lat="44.82304" lon="2.04938">
        <ele>582.773803711</ele>
        <time>2015-09-24T09:55:14.888Z</time>
      </trkpt>
      <trkpt lat="44.82304" lon="2.04937">
        <ele>582.693664551</ele>
        <time>2015-09-24T09:55:15.54Z</time>
      </trkpt>
      <trkpt lat="44.82304" lon="2.04924">
        <ele>582.146240234</ele>
        <time>2015-09-24T09:55:23.67Z</time>
      </trkpt>
      <trkpt lat="44.82305" lon="2.04923">
        <ele>582.160095215</ele>
        <time>2015-09-24T09:55:24.567Z</time>
      </trkpt>
      <trkpt lat="44.82307" lon="2.04912">
        <ele>582.15447998</ele>
        <time>2015-09-24T09:55:31.665Z</time>
      </trkpt>
      <trkpt lat="44.82307" lon="2.0491">
        <ele>582.164489746</ele>
        <time>2015-09-24T09:55:32.563Z</time>
      </trkpt>
      <trkpt lat="44.8231" lon="2.049">
        <ele>582.387390137</ele>
        <time>2015-09-24T09:55:38.574Z</time>
      </trkpt>
      <trkpt lat="44.8231" lon="2.04898">
        <ele>582.494018555</ele>
        <time>2015-09-24T09:55:39.562Z</time>
      </trkpt>
      <trkpt lat="44.82311" lon="2.04887">
        <ele>582.778991699</ele>
        <time>2015-09-24T09:55:46.674Z</time>
      </trkpt>
      <trkpt lat="44.82311" lon="2.04885">
        <ele>582.830688477</ele>
        <time>2015-09-24T09:55:47.556Z</time>
      </trkpt>
      <trkpt lat="44.82313" lon="2.04873">
        <ele>583.129699707</ele>
        <time>2015-09-24T09:55:54.577Z</time>
      </trkpt>
      <trkpt lat="44.82314" lon="2.04871">
        <ele>583.068969727</ele>
        <time>2015-09-24T09:55:55.544Z</time>
      </trkpt>
      <trkpt lat="44.8232" lon="2.04861">
        <ele>583.338317871</ele>
        <time>2015-09-24T09:56:03.479Z</time>
      </trkpt>
      <trkpt lat="44.82321" lon="2.04859">
        <ele>583.396118164</ele>
        <time>2015-09-24T09:56:04.655Z</time>
      </trkpt>
      <trkpt lat="44.82325" lon="2.04851">
        <ele>583.448852539</ele>
        <time>2015-09-24T09:56:10.603Z</time>
      </trkpt>
      <trkpt lat="44.82327" lon="2.04849">
        <ele>583.419677734</ele>
        <time>2015-09-24T09:56:11.532Z</time>
      </trkpt>
      <trkpt lat="44.82331" lon="2.0484">
        <ele>583.512939453</ele>
        <time>2015-09-24T09:56:20.483Z</time>
      </trkpt>
      <trkpt lat="44.82332" lon="2.04838">
        <ele>583.419555664</ele>
        <time>2015-09-24T09:56:21.547Z</time>
      </trkpt>
      <trkpt lat="44.82337" lon="2.04827">
        <ele>582.704956055</ele>
        <time>2015-09-24T09:56:29.6Z</time>
      </trkpt>
      <trkpt lat="44.82337" lon="2.04827">
        <ele>582.635742188</ele>
        <time>2015-09-24T09:56:30.537Z</time>
      </trkpt>
      <trkpt lat="44.8234" lon="2.04815">
        <ele>582.29699707</ele>
        <time>2015-09-24T09:56:39.721Z</time>
      </trkpt>
      <trkpt lat="44.82341" lon="2.04813">
        <ele>582.319458008</ele>
        <time>2015-09-24T09:56:40.571Z</time>
      </trkpt>
      <trkpt lat="44.82345" lon="2.04802">
        <ele>583.150634766</ele>
        <time>2015-09-24T09:56:50.603Z</time>
      </trkpt>
      <trkpt lat="44.82345" lon="2.04802">
        <ele>583.090026855</ele>
        <time>2015-09-24T09:56:51.481Z</time>
      </trkpt>
      <trkpt lat="44.82349" lon="2.04791">
        <ele>582.815979004</ele>
        <time>2015-09-24T09:57:00.601Z</time>
      </trkpt>
      <trkpt lat="44.82349" lon="2.0479">
        <ele>582.701293945</ele>
        <time>2015-09-24T09:57:01.561Z</time>
      </trkpt>
      <trkpt lat="44.82353" lon="2.0478">
        <ele>582.411132812</ele>
        <time>2015-09-24T09:57:07.625Z</time>
      </trkpt>
      <trkpt lat="44.82354" lon="2.04778">
        <ele>582.422668457</ele>
        <time>2015-09-24T09:57:08.531Z</time>
      </trkpt>
      <trkpt lat="44.82357" lon="2.04767">
        <ele>582.290283203</ele>
        <time>2015-09-24T09:57:17.727Z</time>
      </trkpt>
      <trkpt lat="44.82357" lon="2.04766">
        <ele>582.245300293</ele>
        <time>2015-09-24T09:57:18.568Z</time>
      </trkpt>
      <trkpt lat="44.82359" lon="2.04755">
        <ele>582.067504883</ele>
        <time>2015-09-24T09:57:26.604Z</time>
      </trkpt>
      <trkpt lat="44.8236" lon="2.04753">
        <ele>582.088378906</ele>
        <time>2015-09-24T09:57:27.532Z</time>
      </trkpt>
      <trkpt lat="44.8236" lon="2.04741">
        <ele>582.24029541</ele>
        <time>2015-09-24T09:57:39.603Z</time>
      </trkpt>
      <trkpt lat="44.82361" lon="2.04739">
        <ele>582.198425293</ele>
        <time>2015-09-24T09:57:40.531Z</time>
      </trkpt>
      <trkpt lat="44.82364" lon="2.04728">
        <ele>581.87097168</ele>
        <time>2015-09-24T09:57:47.628Z</time>
      </trkpt>
      <trkpt lat="44.82364" lon="2.04728">
        <ele>581.856628418</ele>
        <time>2015-09-24T09:57:48.543Z</time>
      </trkpt>
      <trkpt lat="44.82363" lon="2.04716">
        <ele>581.837280273</ele>
        <time>2015-09-24T09:58:00.669Z</time>
      </trkpt>
      <trkpt lat="44.82363" lon="2.04715">
        <ele>581.82232666</ele>
        <time>2015-09-24T09:58:01.601Z</time>
      </trkpt>
      <trkpt lat="44.82365" lon="2.04703">
        <ele>581.322875977</ele>
        <time>2015-09-24T09:58:08.655Z</time>
      </trkpt>
      <trkpt lat="44.82365" lon="2.04702">
        <ele>581.230651855</ele>
        <time>2015-09-24T09:58:09.602Z</time>
      </trkpt>
      <trkpt lat="44.82367" lon="2.0469">
        <ele>581.05847168</ele>
        <time>2015-09-24T09:58:18.655Z</time>
      </trkpt>
      <trkpt lat="44.82367" lon="2.04689">
        <ele>581.106567383</ele>
        <time>2015-09-24T09:58:19.566Z</time>
      </trkpt>
      <trkpt lat="44.82368" lon="2.04678">
        <ele>581.070983887</ele>
        <time>2015-09-24T09:58:29.673Z</time>
      </trkpt>
      <trkpt lat="44.82368" lon="2.04676">
        <ele>581.044921875</ele>
        <time>2015-09-24T09:58:30.563Z</time>
      </trkpt>
      <trkpt lat="44.8237" lon="2.04665">
        <ele>580.905151367</ele>
        <time>2015-09-24T09:58:38.674Z</time>
      </trkpt>
      <trkpt lat="44.8237" lon="2.04663">
        <ele>580.876586914</ele>
        <time>2015-09-24T09:58:39.542Z</time>
      </trkpt>
      <trkpt lat="44.82371" lon="2.04651">
        <ele>580.80291748</ele>
        <time>2015-09-24T09:58:48.051Z</time>
      </trkpt>
      <trkpt lat="44.82372" lon="2.0465">
        <ele>580.839660645</ele>
        <time>2015-09-24T09:58:48.556Z</time>
      </trkpt>
      <trkpt lat="44.82374" lon="2.04639">
        <ele>580.727966309</ele>
        <time>2015-09-24T09:58:54.7Z</time>
      </trkpt>
      <trkpt lat="44.82374" lon="2.04638">
        <ele>580.757507324</ele>
        <time>2015-09-24T09:58:55.579Z</time>
      </trkpt>
      <trkpt lat="44.82375" lon="2.04625">
        <ele>580.87109375</ele>
        <time>2015-09-24T09:59:02.665Z</time>
      </trkpt>
      <trkpt lat="44.82375" lon="2.04624">
        <ele>580.854125977</ele>
        <time>2015-09-24T09:59:03.618Z</time>
      </trkpt>
      <trkpt lat="44.82376" lon="2.04612">
        <ele>580.821228027</ele>
        <time>2015-09-24T09:59:10.665Z</time>
      </trkpt>
      <trkpt lat="44.82376" lon="2.04611">
        <ele>580.767944336</ele>
        <time>2015-09-24T09:59:11.568Z</time>
      </trkpt>
      <trkpt lat="44.82378" lon="2.04601">
        <ele>581.245605469</ele>
        <time>2015-09-24T09:59:20.576Z</time>
      </trkpt>
      <trkpt lat="44.82378" lon="2.04598">
        <ele>581.286071777</ele>
        <time>2015-09-24T09:59:21.537Z</time>
      </trkpt>
      <trkpt lat="44.82379" lon="2.04586">
        <ele>581.680175781</ele>
        <time>2015-09-24T09:59:27.631Z</time>
      </trkpt>
      <trkpt lat="44.82379" lon="2.04584">
        <ele>581.740112305</ele>
        <time>2015-09-24T09:59:28.535Z</time>
      </trkpt>
      <trkpt lat="44.8238" lon="2.04572">
        <ele>581.860168457</ele>
        <time>2015-09-24T09:59:37.602Z</time>
      </trkpt>
      <trkpt lat="44.8238" lon="2.04571">
        <ele>581.864318848</ele>
        <time>2015-09-24T09:59:38.55Z</time>
      </trkpt>
      <trkpt lat="44.82383" lon="2.0456">
        <ele>581.590942383</ele>
        <time>2015-09-24T09:59:46.691Z</time>
      </trkpt>
      <trkpt lat="44.82383" lon="2.04558">
        <ele>581.578063965</ele>
        <time>2015-09-24T09:59:47.565Z</time>
      </trkpt>
      <trkpt lat="44.82382" lon="2.04546">
        <ele>581.21661377</ele>
        <time>2015-09-24T09:59:56.693Z</time>
      </trkpt>
      <trkpt lat="44.82382" lon="2.04544">
        <ele>581.214172363</ele>
        <time>2015-09-24T09:59:57.56Z</time>
      </trkpt>
      <trkpt lat="44.82387" lon="2.04534">
        <ele>581.156555176</ele>
        <time>2015-09-24T10:00:04.724Z</time>
      </trkpt>
      <trkpt lat="44.82388" lon="2.04532">
        <ele>581.13659668</ele>
        <time>2015-09-24T10:00:05.569Z</time>
      </trkpt>
      <trkpt lat="44.82391" lon="2.04521">
        <ele>580.789245605</ele>
        <time>2015-09-24T10:00:13.664Z</time>
      </trkpt>
      <trkpt lat="44.82391" lon="2.04518">
        <ele>580.746520996</ele>
        <time>2015-09-24T10:00:14.567Z</time>
      </trkpt>
      <trkpt lat="44.82394" lon="2.04507">
        <ele>580.671508789</ele>
        <time>2015-09-24T10:00:24.019Z</time>
      </trkpt>
      <trkpt lat="44.82394" lon="2.04505">
        <ele>580.632873535</ele>
        <time>2015-09-24T10:00:24.562Z</time>
      </trkpt>
      <trkpt lat="44.82397" lon="2.04493">
        <ele>580.939025879</ele>
        <time>2015-09-24T10:00:32.673Z</time>
      </trkpt>
      <trkpt lat="44.82397" lon="2.04491">
        <ele>581.025024414</ele>
        <time>2015-09-24T10:00:33.539Z</time>
      </trkpt>
      <trkpt lat="44.82397" lon="2.04479">
        <ele>581.141052246</ele>
        <time>2015-09-24T10:00:40.662Z</time>
      </trkpt>
      <trkpt lat="44.82397" lon="2.04477">
        <ele>581.225280762</ele>
        <time>2015-09-24T10:00:41.548Z</time>
      </trkpt>
      <trkpt lat="44.82397" lon="2.04466">
        <ele>581.421264648</ele>
        <time>2015-09-24T10:00:50.602Z</time>
      </trkpt>
      <trkpt lat="44.82397" lon="2.04463">
        <ele>581.526062012</ele>
        <time>2015-09-24T10:00:51.542Z</time>
      </trkpt>
      <trkpt lat="44.82397" lon="2.04451">
        <ele>582.286743164</ele>
        <time>2015-09-24T10:01:00.662Z</time>
      </trkpt>
      <trkpt lat="44.82396" lon="2.0445">
        <ele>582.370910645</ele>
        <time>2015-09-24T10:01:01.887Z</time>
      </trkpt>
      <trkpt lat="44.82397" lon="2.04438">
        <ele>582.831176758</ele>
        <time>2015-09-24T10:01:09.664Z</time>
      </trkpt>
      <trkpt lat="44.82398" lon="2.04436">
        <ele>582.737060547</ele>
        <time>2015-09-24T10:01:10.571Z</time>
      </trkpt>
      <trkpt lat="44.82398" lon="2.04424">
        <ele>582.083862305</ele>
        <time>2015-09-24T10:01:15.668Z</time>
      </trkpt>
      <trkpt lat="44.82399" lon="2.04422">
        <ele>582.047302246</ele>
        <time>2015-09-24T10:01:16.556Z</time>
      </trkpt>
      <trkpt lat="44.824" lon="2.04411">
        <ele>582.135742188</ele>
        <time>2015-09-24T10:01:26.666Z</time>
      </trkpt>
      <trkpt lat="44.82401" lon="2.04409">
        <ele>582.162353516</ele>
        <time>2015-09-24T10:01:27.548Z</time>
      </trkpt>
      <trkpt lat="44.82403" lon="2.04397">
        <ele>582.057983398</ele>
        <time>2015-09-24T10:01:36.667Z</time>
      </trkpt>
      <trkpt lat="44.82404" lon="2.04397">
        <ele>582.135314941</ele>
        <time>2015-09-24T10:01:37.562Z</time>
      </trkpt>
      <trkpt lat="44.82405" lon="2.04385">
        <ele>583.543823242</ele>
        <time>2015-09-24T10:01:54.73Z</time>
      </trkpt>
      <trkpt lat="44.82405" lon="2.04384">
        <ele>583.632019043</ele>
        <time>2015-09-24T10:01:55.56Z</time>
      </trkpt>
      <trkpt lat="44.82406" lon="2.04373">
        <ele>585.061096191</ele>
        <time>2015-09-24T10:02:11.657Z</time>
      </trkpt>
      <trkpt lat="44.82405" lon="2.04371">
        <ele>585.15423584</ele>
        <time>2015-09-24T10:02:12.497Z</time>
      </trkpt>
      <trkpt lat="44.82408" lon="2.0436">
        <ele>586.64465332</ele>
        <time>2015-09-24T10:02:23.63Z</time>
      </trkpt>
      <trkpt lat="44.82409" lon="2.04359">
        <ele>586.704650879</ele>
        <time>2015-09-24T10:02:24.567Z</time>
      </trkpt>
      <trkpt lat="44.82412" lon="2.04353">
        <ele>587.195373535</ele>
        <time>2015-09-24T10:02:48.743Z</time>
      </trkpt>
    </trkseg>
  </trk>
</gpx>